Darstellungsparameter: Aktuell verwendete Einstellungen:
Skalierung der Graphiken ... ?
xyx+y,   Skalierungsfaktor:      Skalierung: Modus: x, Faktor: 1
Darstellungszeitraum ... ?
Vom - - bis: - -   Zeitraum: 20.06.2010 - 03.07.2010
Min/Max/Avg-Anzeige ... ?
Zeige MMA aktuell
Zeige MMA Monat
Zeige MMA alles
Zeige --A aktuell
Zeige --A Monat
Zeige --A alles
Keine MMA-Anzeige
MMA:
Average (ber die Originaldaten)
MMA-Basis: 20.06.2010 - 03.07.2010
Quicknavigation für Darstellung... ?
Tage:      1T, 2T, 3T, 5T -1T -2T -3T -5T +1T +2T +3T +5T
Wochen: 1W, 2W, 3W -1W -2W -3W +1W +2W +3W
Monate: 1M, 3M, 6M -1M -3M -6M +1M +3M +6M
Jahre:    1J, 3J, 5J, 10J -1J -3J -5J -10J +1J +3J +5J +10J
Nutze für die Darstellung ... ?
Originaldaten oder Mittelwerte auf ...
Stundenbasis Tagesbasis Wochenbasis
Monatsbasis Jahresbasis      Datenbasis: Original-Daten
Darstellen als:
Statistik (Auto) Statistik J:M      Darstellung:
Zur Graphik,    zurück zur Übersicht aller Sensoren.
 
Tabellarische Datenbersicht: ?
 
Sensor: Nr:Datum:Temp:Abs-Feuchte:Windchill:Wind:
Aussen-T/F 1 20-06-2010 00:03:02 11.5 C 6.3 g/m*3 11.5 C 0 km/h
2 20-06-2010 00:15:02 11.2 C 6.28 g/m*3 11.2 C 0 km/h
3 20-06-2010 00:27:02 10.8 C 6.33 g/m*3 10.8 C 0 km/h
4 20-06-2010 00:39:02 10.6 C 6.44 g/m*3 10.6 C 0 km/h
5 20-06-2010 00:51:02 10.5 C 6.4 g/m*3 10.5 C 0 km/h
6 20-06-2010 01:03:01 10.6 C 6.15 g/m*3 10.6 C 0 km/h
7 20-06-2010 01:15:02 10.6 C 5.95 g/m*3 10.6 C 0 km/h
8 20-06-2010 01:27:02 10.5 C 5.92 g/m*3 10.5 C 0 km/h
9 20-06-2010 01:40:01 10.4 C 5.88 g/m*3 10.4 C 0 km/h
10 20-06-2010 01:52:01 10.2 C 5.9 g/m*3 10.2 C 0 km/h
11 20-06-2010 02:04:01 10.1 C 5.96 g/m*3 10.1 C 0 km/h
12 20-06-2010 02:16:01 9.8 C 6.03 g/m*3 9.8 C 0 km/h
13 20-06-2010 02:28:01 9.6 C 6.05 g/m*3 9.6 C 0 km/h
14 20-06-2010 02:40:01 9.4 C 6.06 g/m*3 9.4 C 0 km/h
15 20-06-2010 02:52:01 9.3 C 6.2 g/m*3 9.3 C 0 km/h
16 20-06-2010 03:04:01 9.3 C 6.38 g/m*3 9.3 C 0 km/h
17 20-06-2010 03:16:01 9.5 C 6.46 g/m*3 9.5 C 0 km/h
18 20-06-2010 03:28:02 9.6 C 6.6 g/m*3 9.6 C 0 km/h
19 20-06-2010 03:40:02 9.5 C 6.74 g/m*3 9.5 C 0 km/h
20 20-06-2010 03:52:02 9.4 C 6.69 g/m*3 9.4 C 0 km/h
21 20-06-2010 04:04:02 9.1 C 6.74 g/m*3 9.1 C 0 km/h
22 20-06-2010 04:16:02 9.1 C 6.92 g/m*3 9.1 C 0 km/h
23 20-06-2010 04:28:02 9.2 C 7.05 g/m*3 9.2 C 0 km/h
24 20-06-2010 04:40:02 9.4 C 7.15 g/m*3 9.4 C 0 km/h
25 20-06-2010 04:52:02 9.2 C 7.05 g/m*3 9.2 C 0 km/h
Sensor: Nr:Datum:Temp:Abs-Feuchte:Windchill:Wind:
Aussen-T/F 26 20-06-2010 05:04:02 9.2 C 7.05 g/m*3 9.2 C 0 km/h
27 20-06-2010 05:16:02 9.2 C 7.05 g/m*3 9.2 C 0 km/h
28 20-06-2010 05:28:02 9.3 C 7.1 g/m*3 9.3 C 0 km/h
29 20-06-2010 05:40:02 9.4 C 7.15 g/m*3 9.4 C 0 km/h
30 20-06-2010 05:52:02 9.6 C 7.24 g/m*3 9.6 C 0 km/h
31 20-06-2010 06:04:02 9.6 C 7.24 g/m*3 9.6 C 0 km/h
32 20-06-2010 06:16:02 9.7 C 7.28 g/m*3 9.7 C 0 km/h
33 20-06-2010 06:28:02 10.1 C 7.28 g/m*3 10.1 C 0 km/h
34 20-06-2010 06:40:02 10.4 C 7.42 g/m*3 10.4 C 0 km/h
35 20-06-2010 06:52:02 10.6 C 7.32 g/m*3 10.6 C 0 km/h
36 20-06-2010 07:04:02 10.7 C 7.17 g/m*3 10.7 C 0 km/h
37 20-06-2010 07:16:02 10.7 C 7.17 g/m*3 10.7 C 0 km/h
38 20-06-2010 07:28:02 10.4 C 7.32 g/m*3 10.4 C 0 km/h
39 20-06-2010 07:40:02 10.2 C 7.52 g/m*3 10.2 C 0 km/h
40 20-06-2010 07:52:02 10.2 C 7.71 g/m*3 10.2 C 0 km/h
41 20-06-2010 08:04:01 10.3 C 7.85 g/m*3 10.3 C 0 km/h
42 20-06-2010 08:16:02 10.5 C 8.05 g/m*3 10.5 C 0 km/h
43 20-06-2010 08:28:02 10.4 C 8 g/m*3 10.4 C 0 km/h
44 20-06-2010 08:40:01 10.9 C 8.36 g/m*3 10.9 C 0 km/h
45 20-06-2010 08:52:03 10.8 C 8.2 g/m*3 10.8 C 0 km/h
46 20-06-2010 09:04:02 11.4 C 8.21 g/m*3 11.4 C 0 km/h
47 20-06-2010 09:16:03 12.4 C 8.52 g/m*3 12.4 C 0 km/h
48 20-06-2010 09:28:03 12.5 C 7.92 g/m*3 12.5 C 0 km/h
49 20-06-2010 09:40:02 13 C 7.83 g/m*3 13 C 0 km/h
50 20-06-2010 09:52:02 13.1 C 7.53 g/m*3 13.1 C 0 km/h
Sensor: Nr:Datum:Temp:Abs-Feuchte:Windchill:Wind:
Aussen-T/F 51 20-06-2010 10:04:01 13.6 C 7.77 g/m*3 13.6 C 0 km/h
52 20-06-2010 10:16:02 14 C 7.48 g/m*3 14 C 0 km/h
53 20-06-2010 10:28:02 13.7 C 6.99 g/m*3 13.7 C 0 km/h
54 20-06-2010 10:40:02 13.3 C 7.05 g/m*3 13.3 C 0 km/h
55 20-06-2010 10:52:02 13.1 C 6.96 g/m*3 13.1 C 0 km/h
56 20-06-2010 11:04:02 13 C 6.92 g/m*3 13 C 0 km/h
57 20-06-2010 11:16:01 12.6 C 7.08 g/m*3 12.6 C 0 km/h
58 20-06-2010 11:28:01 13.3 C 7.05 g/m*3 13.3 C 0 km/h
59 20-06-2010 11:40:02 14 C 7 g/m*3 14 C 0 km/h
60 20-06-2010 11:52:02 14.3 C 6.63 g/m*3 14.3 C 0 km/h
61 20-06-2010 12:04:02 14.4 C 6.55 g/m*3 14.4 C 0 km/h
62 20-06-2010 12:16:02 14.9 C 6.75 g/m*3 14.9 C 0 km/h
63 20-06-2010 12:28:02 15.3 C 6.53 g/m*3 15.3 C 0 km/h
64 20-06-2010 12:40:02 16.1 C 6.44 g/m*3 16.1 C 0 km/h
65 20-06-2010 12:52:01 15.6 C 6.25 g/m*3 15.6 C 0 km/h
66 20-06-2010 13:04:02 15.3 C 6.53 g/m*3 15.3 C 0 km/h
67 20-06-2010 13:16:01 15.6 C 6.65 g/m*3 15.6 C 0 km/h
68 20-06-2010 13:28:01 15.8 C 6.46 g/m*3 15.8 C 0 km/h
69 20-06-2010 13:40:01 16.9 C 6.33 g/m*3 16.9 C 0 km/h
70 20-06-2010 13:52:01 18.2 C 5.91 g/m*3 18.2 C 0 km/h
71 20-06-2010 14:04:01 16.9 C 5.47 g/m*3 16.9 C 0 km/h
72 20-06-2010 14:16:02 15.7 C 5.89 g/m*3 15.7 C 0 km/h
73 20-06-2010 14:28:02 15.9 C 6.09 g/m*3 15.9 C 0 km/h
74 20-06-2010 14:40:01 17.4 C 6.22 g/m*3 17.4 C 0 km/h
75 20-06-2010 14:52:02 16.7 C 5.68 g/m*3 16.7 C 0 km/h
Sensor: Nr:Datum:Temp:Abs-Feuchte:Windchill:Wind:
Aussen-T/F 76 20-06-2010 15:04:02 17.2 C 5.71 g/m*3 17.2 C 0 km/h
77 20-06-2010 15:16:02 17.6 C 5.85 g/m*3 17.6 C 0 km/h
78 20-06-2010 15:28:02 17.7 C 6.04 g/m*3 17.7 C 0 km/h
79 20-06-2010 15:40:02 18.7 C 6.08 g/m*3 18.7 C 0 km/h
80 20-06-2010 15:52:02 18.1 C 5.72 g/m*3 18.1 C 0 km/h
81 20-06-2010 16:04:02 16.4 C 5.72 g/m*3 16.4 C 0 km/h
82 20-06-2010 16:16:02 16.4 C 5.72 g/m*3 16.4 C 0 km/h
83 20-06-2010 16:28:02 16.7 C 5.97 g/m*3 16.7 C 0 km/h
84 20-06-2010 16:40:03 17.1 C 5.68 g/m*3 17.1 C 0 km/h
85 20-06-2010 16:52:02 17.1 C 5.39 g/m*3 17.1 C 0 km/h
86 20-06-2010 17:04:01 17 C 5.35 g/m*3 17 C 0 km/h
87 20-06-2010 17:16:02 16 C 5.72 g/m*3 16 C 0 km/h
88 20-06-2010 17:28:02 16.2 C 5.79 g/m*3 16.2 C 0 km/h
89 20-06-2010 17:40:02 16 C 5.86 g/m*3 16 C 0 km/h
90 20-06-2010 17:52:02 16.4 C 6.14 g/m*3 16.4 C 0 km/h
91 20-06-2010 18:04:03 16.5 C 6.32 g/m*3 16.5 C 0 km/h
92 20-06-2010 18:16:02 16.2 C 6.34 g/m*3 16.2 C 0 km/h
93 20-06-2010 18:28:02 16.4 C 6.28 g/m*3 16.4 C 0 km/h
94 20-06-2010 18:40:02 16.3 C 6.24 g/m*3 16.3 C 0 km/h
95 20-06-2010 18:52:02 16.2 C 6.07 g/m*3 16.2 C 0 km/h
96 20-06-2010 19:04:02 15.9 C 5.96 g/m*3 15.9 C 0 km/h
97 20-06-2010 19:16:01 15.7 C 5.89 g/m*3 15.7 C 0 km/h
98 20-06-2010 19:28:01 15.4 C 5.91 g/m*3 15.4 C 0 km/h
99 20-06-2010 19:40:02 15.6 C 6.12 g/m*3 15.6 C 0 km/h
100 20-06-2010 19:52:02 15.8 C 6.19 g/m*3 15.8 C 0 km/h
Sensor: Nr:Datum:Temp:Abs-Feuchte:Windchill:Wind:
Aussen-T/F 101 20-06-2010 20:04:02 15.6 C 6.25 g/m*3 15.6 C 0 km/h
102 20-06-2010 20:16:01 15.3 C 6.01 g/m*3 15.3 C 0 km/h
103 20-06-2010 20:28:01 15.2 C 6.1 g/m*3 15.2 C 0 km/h
104 20-06-2010 20:40:02 15.1 C 6.19 g/m*3 15.1 C 0 km/h
105 20-06-2010 20:52:02 15 C 6.28 g/m*3 15 C 0 km/h
106 20-06-2010 21:04:02 14.8 C 6.59 g/m*3 14.8 C 0 km/h
107 20-06-2010 21:16:01 14.7 C 6.55 g/m*3 14.7 C 0 km/h
108 20-06-2010 21:28:01 14.6 C 6.63 g/m*3 14.6 C 0 km/h
109 20-06-2010 21:40:02 14.5 C 6.84 g/m*3 14.5 C 0 km/h
110 20-06-2010 21:52:02 14.3 C 6.76 g/m*3 14.3 C 0 km/h
111 20-06-2010 22:04:02 14.2 C 6.84 g/m*3 14.2 C 0 km/h
112 20-06-2010 22:17:02 14 C 6.75 g/m*3 14 C 0 km/h
113 20-06-2010 22:29:02 13.8 C 6.91 g/m*3 13.8 C 0 km/h
114 20-06-2010 22:41:02 13.5 C 6.9 g/m*3 13.5 C 0 km/h
115 20-06-2010 22:53:02 13.4 C 6.97 g/m*3 13.4 C 0 km/h
116 20-06-2010 23:05:02 13.2 C 6.89 g/m*3 13.2 C 0 km/h
117 20-06-2010 23:17:02 13 C 6.92 g/m*3 13 C 0 km/h
118 20-06-2010 23:29:02 12.6 C 6.97 g/m*3 12.6 C 0 km/h
119 20-06-2010 23:41:02 12.3 C 6.84 g/m*3 12.3 C 0 km/h
120 20-06-2010 23:53:02 12.1 C 6.97 g/m*3 12.1 C 0 km/h
121 21-06-2010 00:05:02 11.9 C 7.1 g/m*3 11.9 C 0 km/h
122 21-06-2010 00:17:02 11.8 C 7.05 g/m*3 11.8 C 0 km/h
123 21-06-2010 00:29:02 11.4 C 6.98 g/m*3 11.4 C 0 km/h
124 21-06-2010 00:41:02 11.2 C 7.1 g/m*3 11.2 C 0 km/h
125 21-06-2010 00:53:03 11.2 C 7.1 g/m*3 11.2 C 0 km/h
Sensor: Nr:Datum:Temp:Abs-Feuchte:Windchill:Wind:
Aussen-T/F 126 21-06-2010 01:05:03 11.1 C 6.95 g/m*3 11.1 C 0 km/h
127 21-06-2010 01:17:03 11.1 C 7.05 g/m*3 11.1 C 0 km/h
128 21-06-2010 01:29:03 11 C 7.01 g/m*3 11 C 0 km/h
129 21-06-2010 01:41:03 10.8 C 7.02 g/m*3 10.8 C 0 km/h
130 21-06-2010 01:53:03 10.7 C 7.07 g/m*3 10.7 C 0 km/h
131 21-06-2010 02:05:03 10.5 C 6.98 g/m*3 10.5 C 0 km/h
132 21-06-2010 02:17:03 10.4 C 7.04 g/m*3 10.4 C 0 km/h
133 21-06-2010 02:29:03 10.1 C 6.9 g/m*3 10.1 C 0 km/h
134 21-06-2010 02:41:03 10.2 C 7.04 g/m*3 10.2 C 0 km/h
135 21-06-2010 02:53:03 10.2 C 6.95 g/m*3 10.2 C 0 km/h
136 21-06-2010 03:05:03 10 C 6.86 g/m*3 10 C 0 km/h
137 21-06-2010 03:17:03 9.8 C 6.87 g/m*3 9.8 C 0 km/h
138 21-06-2010 03:29:03 9.6 C 6.78 g/m*3 9.6 C 0 km/h
139 21-06-2010 03:41:03 9.5 C 6.83 g/m*3 9.5 C 0 km/h
140 21-06-2010 03:53:03 9.3 C 6.74 g/m*3 9.3 C 0 km/h
141 21-06-2010 04:05:03 9.1 C 6.74 g/m*3 9.1 C 0 km/h
142 21-06-2010 04:17:03 9.1 C 6.83 g/m*3 9.1 C 0 km/h
143 21-06-2010 04:29:03 9.2 C 6.97 g/m*3 9.2 C 0 km/h
144 21-06-2010 04:41:03 9.4 C 6.96 g/m*3 9.4 C 0 km/h
145 21-06-2010 04:53:03 9 C 6.79 g/m*3 9 C 0 km/h
146 21-06-2010 05:05:04 8.8 C 6.88 g/m*3 8.8 C 0 km/h
147 21-06-2010 05:17:04 8.7 C 6.83 g/m*3 8.7 C 0 km/h
148 21-06-2010 05:29:04 8.7 C 6.92 g/m*3 8.7 C 0 km/h
149 21-06-2010 05:41:04 8.6 C 6.87 g/m*3 8.6 C 0 km/h
150 21-06-2010 05:53:04 8.6 C 6.96 g/m*3 8.6 C 0 km/h
Sensor: Nr:Datum:Temp:Abs-Feuchte:Windchill:Wind:
Aussen-T/F 151 21-06-2010 06:05:04 8.5 C 7 g/m*3 8.5 C 0 km/h
152 21-06-2010 06:17:04 8.5 C 7 g/m*3 8.5 C 0 km/h
153 21-06-2010 06:29:04 8.6 C 7.13 g/m*3 8.6 C 0 km/h
154 21-06-2010 06:41:04 8.6 C 7.22 g/m*3 8.6 C 0 km/h
155 21-06-2010 06:53:02 8.9 C 7.36 g/m*3 8.9 C 0 km/h
156 21-06-2010 07:05:03 9.1 C 7.36 g/m*3 9.1 C 0 km/h
157 21-06-2010 07:17:03 9.5 C 7.46 g/m*3 9.5 C 0 km/h
158 21-06-2010 07:29:03 9.8 C 7.33 g/m*3 9.8 C 0 km/h
159 21-06-2010 07:41:03 10.6 C 7.22 g/m*3 10.6 C 0 km/h
160 21-06-2010 07:53:02 11.5 C 7.23 g/m*3 11.5 C 0 km/h
161 21-06-2010 08:05:02 12.1 C 7.18 g/m*3 12.1 C 0 km/h
162 21-06-2010 08:17:02 12.3 C 6.95 g/m*3 12.3 C 0 km/h
163 21-06-2010 08:29:02 12.4 C 6.77 g/m*3 12.4 C 0 km/h
164 21-06-2010 08:41:02 12.7 C 6.9 g/m*3 12.7 C 0 km/h
165 21-06-2010 08:53:02 13.2 C 6.77 g/m*3 13.2 C 0 km/h
166 21-06-2010 09:05:01 13.4 C 6.63 g/m*3 13.4 C 0 km/h
167 21-06-2010 09:17:02 13.4 C 6.16 g/m*3 13.4 C 0 km/h
168 21-06-2010 09:29:03 13.7 C 6.39 g/m*3 13.7 C 0 km/h
169 21-06-2010 09:41:01 14.2 C 5.86 g/m*3 14.2 C 0 km/h
170 21-06-2010 09:53:02 14 C 5.43 g/m*3 14 C 0 km/h
171 21-06-2010 10:05:01 13.9 C 5.39 g/m*3 13.9 C 0 km/h
172 21-06-2010 10:17:02 13.9 C 5.63 g/m*3 13.9 C 0 km/h
173 21-06-2010 10:29:02 13.5 C 6.08 g/m*3 13.5 C 0 km/h
174 21-06-2010 10:41:01 13.5 C 5.97 g/m*3 13.5 C 0 km/h
175 21-06-2010 10:53:02 14 C 5.55 g/m*3 14 C 0 km/h
Sensor: Nr:Datum:Temp:Abs-Feuchte:Windchill:Wind:
Aussen-T/F 176 21-06-2010 11:05:02 14.7 C 5.67 g/m*3 14.7 C 0 km/h
177 21-06-2010 11:17:02 14.7 C 5.16 g/m*3 14.7 C 0 km/h
178 21-06-2010 11:29:02 14.2 C 5.13 g/m*3 14.2 C 0 km/h
179 21-06-2010 11:41:02 14.4 C 5.44 g/m*3 14.4 C 0 km/h
180 21-06-2010 11:53:02 15.4 C 5.52 g/m*3 15.4 C 0 km/h
181 21-06-2010 12:05:01 16.3 C 5.27 g/m*3 16.3 C 0 km/h
182 21-06-2010 12:17:02 16.5 C 5.34 g/m*3 16.5 C 0 km/h
183 21-06-2010 12:29:02 16 C 5.18 g/m*3 16 C 0 km/h
184 21-06-2010 12:41:02 14.8 C 5.19 g/m*3 14.8 C 0 km/h
185 21-06-2010 12:53:01 15 C 5.39 g/m*3 15 C 0 km/h
186 21-06-2010 13:05:02 14.7 C 5.29 g/m*3 14.7 C 0 km/h
187 21-06-2010 13:17:01 15.2 C 5.19 g/m*3 15.2 C 0 km/h
188 21-06-2010 13:29:01 16 C 5.04 g/m*3 16 C 0 km/h
189 21-06-2010 13:41:02 18 C 5.07 g/m*3 18 C 0 km/h
190 21-06-2010 13:53:02 19.6 C 4.9 g/m*3 19.6 C 0 km/h
191 21-06-2010 14:05:02 19.3 C 4.81 g/m*3 19.3 C 0 km/h
192 21-06-2010 14:17:01 18.2 C 4.66 g/m*3 18.2 C 0 km/h
193 21-06-2010 14:29:01 18.7 C 4.48 g/m*3 18.7 C 0 km/h
194 21-06-2010 14:41:02 18.9 C 4.86 g/m*3 18.9 C 0 km/h
195 21-06-2010 14:53:02 18 C 4.61 g/m*3 18 C 0 km/h
196 21-06-2010 15:05:02 17.7 C 4.38 g/m*3 17.7 C 0 km/h
197 21-06-2010 15:17:02 18.4 C 4.88 g/m*3 18.4 C 0 km/h
198 21-06-2010 15:29:02 20 C 4.49 g/m*3 20 C 0 km/h
199 21-06-2010 15:41:02 18.7 C 4.8 g/m*3 18.7 C 0 km/h
200 21-06-2010 15:53:02 18.5 C 4.27 g/m*3 18.5 C 0 km/h
Sensor: Nr:Datum:Temp:Abs-Feuchte:Windchill:Wind:
Aussen-T/F 201 21-06-2010 16:05:02 19 C 4.56 g/m*3 19 C 0 km/h
202 21-06-2010 16:17:02 20 C 4.67 g/m*3 20 C 0 km/h
203 21-06-2010 16:29:02 21.2 C 4.63 g/m*3 21.2 C 0 km/h
204 21-06-2010 16:41:02 21 C 4.21 g/m*3 21 C 0 km/h
205 21-06-2010 16:53:02 22.6 C 4.42 g/m*3 22.6 C 0 km/h
206 21-06-2010 17:05:02 21 C 4.03 g/m*3 21 C 0 km/h
207 21-06-2010 17:17:03 20.6 C 4.47 g/m*3 20.6 C 0 km/h
208 21-06-2010 17:29:03 19.3 C 4.64 g/m*3 19.3 C 0 km/h
209 21-06-2010 17:41:02 18.7 C 4.8 g/m*3 18.7 C 0 km/h
210 21-06-2010 17:53:02 18.3 C 5 g/m*3 18.3 C 0 km/h
211 21-06-2010 18:05:02 18.4 C 5.03 g/m*3 18.4 C 0 km/h
212 21-06-2010 18:17:02 18.2 C 4.82 g/m*3 18.2 C 0 km/h
213 21-06-2010 18:29:02 18.4 C 5.03 g/m*3 18.4 C 0 km/h
214 21-06-2010 18:41:02 18.2 C 4.82 g/m*3 18.2 C 0 km/h
215 21-06-2010 18:53:02 18.4 C 5.03 g/m*3 18.4 C 0 km/h
216 21-06-2010 19:05:02 18.2 C 4.97 g/m*3 18.2 C 0 km/h
217 21-06-2010 19:17:02 17.6 C 5.1 g/m*3 17.6 C 0 km/h
218 21-06-2010 19:29:03 17.4 C 5.19 g/m*3 17.4 C 0 km/h
219 21-06-2010 19:41:02 17.3 C 5.3 g/m*3 17.3 C 0 km/h
220 21-06-2010 19:53:02 17.2 C 5.13 g/m*3 17.2 C 0 km/h
221 21-06-2010 20:05:01 17.2 C 5.86 g/m*3 17.2 C 0 km/h
222 21-06-2010 20:17:02 17.2 C 5.71 g/m*3 17.2 C 0 km/h
223 21-06-2010 20:29:02 16.9 C 6.33 g/m*3 16.9 C 0 km/h
224 21-06-2010 20:41:02 16.6 C 6.36 g/m*3 16.6 C 0 km/h
225 21-06-2010 20:53:01 16.2 C 6.48 g/m*3 16.2 C 0 km/h
Sensor: Nr:Datum:Temp:Abs-Feuchte:Windchill:Wind:
Aussen-T/F 226 21-06-2010 21:05:01 16 C 6.4 g/m*3 16 C 0 km/h
227 21-06-2010 21:17:02 15.6 C 6.25 g/m*3 15.6 C 0 km/h
228 21-06-2010 21:29:02 15.2 C 6.1 g/m*3 15.2 C 0 km/h
229 21-06-2010 21:41:01 14.9 C 6.25 g/m*3 14.9 C 0 km/h
230 21-06-2010 21:53:02 14.5 C 5.97 g/m*3 14.5 C 0 km/h
231 21-06-2010 22:05:02 14.2 C 6.11 g/m*3 14.2 C 0 km/h
232 21-06-2010 22:18:03 14 C 6.15 g/m*3 14 C 0 km/h
233 21-06-2010 22:30:03 13.7 C 6.16 g/m*3 13.7 C 0 km/h
234 21-06-2010 22:42:04 13.4 C 6.39 g/m*3 13.4 C 0 km/h
235 21-06-2010 22:54:04 13.4 C 6.28 g/m*3 13.4 C 0 km/h
236 21-06-2010 23:06:04 13.5 C 6.55 g/m*3 13.5 C 0 km/h
237 21-06-2010 23:18:04 13.4 C 6.51 g/m*3 13.4 C 0 km/h
238 21-06-2010 23:30:04 13.4 C 6.51 g/m*3 13.4 C 0 km/h
239 21-06-2010 23:42:04 13.2 C 6.43 g/m*3 13.2 C 0 km/h
240 21-06-2010 23:54:04 13.1 C 6.39 g/m*3 13.1 C 0 km/h
241 22-06-2010 00:06:04 12.8 C 6.5 g/m*3 12.8 C 0 km/h
242 22-06-2010 00:18:04 12.5 C 6.49 g/m*3 12.5 C 0 km/h
243 22-06-2010 00:30:04 12.2 C 6.58 g/m*3 12.2 C 0 km/h
244 22-06-2010 00:42:04 12.1 C 6.65 g/m*3 12.1 C 0 km/h
245 22-06-2010 00:54:04 12.1 C 6.86 g/m*3 12.1 C 0 km/h
246 22-06-2010 01:06:04 12.2 C 7.01 g/m*3 12.2 C 0 km/h
247 22-06-2010 01:18:04 12.2 C 7.01 g/m*3 12.2 C 0 km/h
248 22-06-2010 01:30:05 12.4 C 6.99 g/m*3 12.4 C 0 km/h
249 22-06-2010 01:42:05 12.2 C 7.01 g/m*3 12.2 C 0 km/h
250 22-06-2010 01:54:05 12.2 C 7.01 g/m*3 12.2 C 0 km/h
Sensor: Nr:Datum:Temp:Abs-Feuchte:Windchill:Wind:
Aussen-T/F 251 22-06-2010 02:06:05 12.1 C 6.97 g/m*3 12.1 C 0 km/h
252 22-06-2010 02:18:05 12.2 C 7.01 g/m*3 12.2 C 0 km/h
253 22-06-2010 02:30:05 12 C 7.03 g/m*3 12 C 0 km/h
254 22-06-2010 02:42:05 11.9 C 7.1 g/m*3 11.9 C 0 km/h
255 22-06-2010 02:54:05 11.9 C 7.2 g/m*3 11.9 C 0 km/h
256 22-06-2010 03:06:05 11.9 C 7.31 g/m*3 11.9 C 0 km/h
257 22-06-2010 03:18:05 11.8 C 7.26 g/m*3 11.8 C 0 km/h
258 22-06-2010 03:30:05 11.7 C 7.22 g/m*3 11.7 C 0 km/h
259 22-06-2010 03:42:05 11.8 C 7.26 g/m*3 11.8 C 0 km/h
260 22-06-2010 03:54:05 11.9 C 7.41 g/m*3 11.9 C 0 km/h
261 22-06-2010 04:06:05 11.5 C 7.33 g/m*3 11.5 C 0 km/h
262 22-06-2010 04:18:05 11.4 C 7.29 g/m*3 11.4 C 0 km/h
263 22-06-2010 04:30:05 11.5 C 7.44 g/m*3 11.5 C 0 km/h
264 22-06-2010 04:42:05 11.5 C 7.44 g/m*3 11.5 C 0 km/h
265 22-06-2010 04:54:05 11.5 C 7.44 g/m*3 11.5 C 0 km/h
266 22-06-2010 05:06:05 11.5 C 7.54 g/m*3 11.5 C 0 km/h
267 22-06-2010 05:18:05 11.4 C 7.49 g/m*3 11.4 C 0 km/h
268 22-06-2010 05:30:05 11.4 C 7.49 g/m*3 11.4 C 0 km/h
269 22-06-2010 05:42:05 11.5 C 7.54 g/m*3 11.5 C 0 km/h
270 22-06-2010 05:54:05 11.4 C 7.39 g/m*3 11.4 C 0 km/h
271 22-06-2010 06:06:06 11.5 C 7.54 g/m*3 11.5 C 0 km/h
272 22-06-2010 06:18:06 11.5 C 7.54 g/m*3 11.5 C 0 km/h
273 22-06-2010 06:30:06 11.6 C 7.69 g/m*3 11.6 C 0 km/h
274 22-06-2010 06:42:03 11.6 C 7.69 g/m*3 11.6 C 0 km/h
275 22-06-2010 06:54:02 11.7 C 7.64 g/m*3 11.7 C 0 km/h
Sensor: Nr:Datum:Temp:Abs-Feuchte:Windchill:Wind:
Aussen-T/F 276 22-06-2010 07:06:02 11.9 C 7.73 g/m*3 11.9 C 0 km/h
277 22-06-2010 07:18:02 12 C 7.67 g/m*3 12 C 0 km/h
278 22-06-2010 07:30:02 12.1 C 7.61 g/m*3 12.1 C 0 km/h
279 22-06-2010 07:42:02 12.4 C 7.65 g/m*3 12.4 C 0 km/h
280 22-06-2010 07:54:01 12.8 C 7.73 g/m*3 12.8 C 0 km/h
281 22-06-2010 08:06:02 13.1 C 7.65 g/m*3 13.1 C 0 km/h
282 22-06-2010 08:18:02 13 C 7.14 g/m*3 13 C 0 km/h
283 22-06-2010 08:30:02 12.9 C 7.44 g/m*3 12.9 C 0 km/h
284 22-06-2010 08:42:02 12.9 C 7.66 g/m*3 12.9 C 0 km/h
285 22-06-2010 08:54:02 13.1 C 7.53 g/m*3 13.1 C 0 km/h
286 22-06-2010 09:06:01 13.5 C 7.49 g/m*3 13.5 C 0 km/h
287 22-06-2010 09:18:02 14.2 C 7.45 g/m*3 14.2 C 0 km/h
288 22-06-2010 09:30:03 15.1 C 7.61 g/m*3 15.1 C 0 km/h
289 22-06-2010 09:42:01 15.8 C 7.4 g/m*3 15.8 C 0 km/h
290 22-06-2010 09:54:02 16.4 C 6.7 g/m*3 16.4 C 0 km/h
291 22-06-2010 10:06:01 17.3 C 6.19 g/m*3 17.3 C 0 km/h
292 22-06-2010 10:18:01 17.9 C 6.11 g/m*3 17.9 C 0 km/h
293 22-06-2010 10:30:01 18.7 C 6.56 g/m*3 18.7 C 0 km/h
294 22-06-2010 10:42:02 19.5 C 6.55 g/m*3 19.5 C 0 km/h
295 22-06-2010 10:54:02 20.2 C 6.47 g/m*3 20.2 C 0 km/h
296 22-06-2010 11:06:01 20.7 C 5.94 g/m*3 20.7 C 0 km/h
297 22-06-2010 11:18:02 20.1 C 6.08 g/m*3 20.1 C 0 km/h
298 22-06-2010 11:30:02 20.4 C 5.84 g/m*3 20.4 C 0 km/h
299 22-06-2010 11:42:02 20.4 C 5.66 g/m*3 20.4 C 0 km/h
300 22-06-2010 11:54:02 19.6 C 5.57 g/m*3 19.6 C 0 km/h
Sensor: Nr:Datum:Temp:Abs-Feuchte:Windchill:Wind:
Aussen-T/F 301 22-06-2010 12:06:03 21.4 C 6 g/m*3 21.4 C 0 km/h
302 22-06-2010 12:18:02 23.3 C 5.23 g/m*3 23.3 C 0 km/h
303 22-06-2010 12:30:02 20.7 C 5.4 g/m*3 20.7 C 0 km/h
304 22-06-2010 12:42:02 19.9 C 5.5 g/m*3 19.9 C 0 km/h
305 22-06-2010 12:54:01 20.1 C 5.21 g/m*3 20.1 C 0 km/h
306 22-06-2010 13:06:02 22.5 C 4.99 g/m*3 22.5 C 0 km/h
307 22-06-2010 13:18:01 20.4 C 5.31 g/m*3 20.4 C 0 km/h
308 22-06-2010 13:30:01 20.7 C 5.4 g/m*3 20.7 C 0 km/h
309 22-06-2010 13:42:01 22.1 C 5.47 g/m*3 22.1 C 0 km/h
310 22-06-2010 13:54:01 22.7 C 5.25 g/m*3 22.7 C 0 km/h
311 22-06-2010 14:06:02 23 C 4.93 g/m*3 23 C 0 km/h
312 22-06-2010 14:18:01 23.1 C 5.37 g/m*3 23.1 C 0 km/h
313 22-06-2010 14:30:01 23.2 C 5.41 g/m*3 23.2 C 0 km/h
314 22-06-2010 14:42:01 23.3 C 5.23 g/m*3 23.3 C 0 km/h
315 22-06-2010 14:54:01 23.9 C 4.98 g/m*3 23.9 C 0 km/h
316 22-06-2010 15:06:02 23.9 C 4.98 g/m*3 23.9 C 0 km/h
317 22-06-2010 15:18:02 24.7 C 4.75 g/m*3 24.7 C 0 km/h
318 22-06-2010 15:30:02 24.9 C 5.49 g/m*3 24.9 C 0 km/h
319 22-06-2010 15:42:01 25 C 5.06 g/m*3 25 C 0 km/h
320 22-06-2010 15:54:02 24.2 C 4.4 g/m*3 24.2 C 0 km/h
321 22-06-2010 16:06:01 23.3 C 4.81 g/m*3 23.3 C 0 km/h
322 22-06-2010 16:18:02 23.4 C 5.26 g/m*3 23.4 C 0 km/h
323 22-06-2010 16:30:02 24.9 C 5.04 g/m*3 24.9 C 0 km/h
324 22-06-2010 16:42:01 26 C 4.87 g/m*3 26 C 0 km/h
325 22-06-2010 16:54:03 23.8 C 4.73 g/m*3 23.8 C 0 km/h
Sensor: Nr:Datum:Temp:Abs-Feuchte:Windchill:Wind:
Aussen-T/F 326 22-06-2010 17:06:02 23.6 C 5.32 g/m*3 23.6 C 0 km/h
327 22-06-2010 17:18:02 22.8 C 5.08 g/m*3 22.8 C 0 km/h
328 22-06-2010 17:30:03 22.7 C 5.25 g/m*3 22.7 C 0 km/h
329 22-06-2010 17:42:02 23.3 C 5.23 g/m*3 23.3 C 0 km/h
330 22-06-2010 17:54:02 24.1 C 5.03 g/m*3 24.1 C 0 km/h
331 22-06-2010 18:06:01 23.7 C 4.92 g/m*3 23.7 C 0 km/h
332 22-06-2010 18:18:02 23.8 C 6.24 g/m*3 23.8 C 0 km/h
333 22-06-2010 18:30:02 23.3 C 6.48 g/m*3 23.3 C 0 km/h
334 22-06-2010 18:42:02 22.6 C 6.63 g/m*3 22.6 C 0 km/h
335 22-06-2010 18:54:01 22.3 C 6.91 g/m*3 22.3 C 0 km/h
336 22-06-2010 19:06:02 22.7 C 6.67 g/m*3 22.7 C 0 km/h
337 22-06-2010 19:18:01 23.3 C 6.27 g/m*3 23.3 C 0 km/h
338 22-06-2010 19:30:01 23.9 C 6.06 g/m*3 23.9 C 0 km/h
339 22-06-2010 19:42:02 24 C 5.87 g/m*3 24 C 0 km/h
340 22-06-2010 19:54:02 23.5 C 6.56 g/m*3 23.5 C 0 km/h
341 22-06-2010 20:06:02 22.8 C 6.5 g/m*3 22.8 C 0 km/h
342 22-06-2010 20:18:01 22.1 C 6.44 g/m*3 22.1 C 0 km/h
343 22-06-2010 20:30:01 21.1 C 6.63 g/m*3 21.1 C 0 km/h
344 22-06-2010 20:42:02 20 C 6.74 g/m*3 20 C 0 km/h
345 22-06-2010 20:54:02 19.2 C 6.76 g/m*3 19.2 C 0 km/h
346 22-06-2010 21:06:02 18.9 C 6.64 g/m*3 18.9 C 0 km/h
347 22-06-2010 21:18:01 18.3 C 6.41 g/m*3 18.3 C 0 km/h
348 22-06-2010 21:30:01 18 C 6.45 g/m*3 18 C 0 km/h
349 22-06-2010 21:42:02 17.6 C 6.45 g/m*3 17.6 C 0 km/h
350 22-06-2010 21:54:02 17.3 C 6.33 g/m*3 17.3 C 0 km/h
Sensor: Nr:Datum:Temp:Abs-Feuchte:Windchill:Wind:
Aussen-T/F 351 22-06-2010 22:06:02 16.8 C 6.72 g/m*3 16.8 C 0 km/h
352 22-06-2010 22:18:02 16.7 C 6.82 g/m*3 16.7 C 0 km/h
353 22-06-2010 22:30:02 16.3 C 6.8 g/m*3 16.3 C 0 km/h
354 22-06-2010 22:42:02 16 C 6.81 g/m*3 16 C 0 km/h
355 22-06-2010 22:55:05 15.8 C 6.87 g/m*3 15.8 C 0 km/h
356 22-06-2010 23:07:05 15.5 C 7.01 g/m*3 15.5 C 0 km/h
357 22-06-2010 23:19:05 15.2 C 6.88 g/m*3 15.2 C 0 km/h
358 22-06-2010 23:31:05 14.9 C 6.88 g/m*3 14.9 C 0 km/h
359 22-06-2010 23:43:05 14.7 C 7.05 g/m*3 14.7 C 0 km/h
360 22-06-2010 23:55:05 14.6 C 7.13 g/m*3 14.6 C 0 km/h
361 23-06-2010 00:07:05 14.3 C 7.37 g/m*3 14.3 C 0 km/h
362 23-06-2010 00:19:06 14 C 7.36 g/m*3 14 C 0 km/h
363 23-06-2010 00:31:06 13.8 C 7.51 g/m*3 13.8 C 0 km/h
364 23-06-2010 00:43:06 13.5 C 7.6 g/m*3 13.5 C 0 km/h
365 23-06-2010 00:55:06 13.4 C 7.67 g/m*3 13.4 C 0 km/h
366 23-06-2010 01:07:06 13.2 C 7.58 g/m*3 13.2 C 0 km/h
367 23-06-2010 01:19:06 12.9 C 7.78 g/m*3 12.9 C 0 km/h
368 23-06-2010 01:31:06 12.7 C 7.68 g/m*3 12.7 C 0 km/h
369 23-06-2010 01:43:06 12.4 C 7.76 g/m*3 12.4 C 0 km/h
370 23-06-2010 01:55:06 12.2 C 7.77 g/m*3 12.2 C 0 km/h
371 23-06-2010 02:07:06 12.2 C 7.77 g/m*3 12.2 C 0 km/h
372 23-06-2010 02:19:06 11.9 C 7.73 g/m*3 11.9 C 0 km/h
373 23-06-2010 02:31:06 11.8 C 7.79 g/m*3 11.8 C 0 km/h
374 23-06-2010 02:43:06 11.8 C 7.89 g/m*3 11.8 C 0 km/h
375 23-06-2010 02:55:06 11.5 C 7.75 g/m*3 11.5 C 0 km/h
Sensor: Nr:Datum:Temp:Abs-Feuchte:Windchill:Wind:
Aussen-T/F 376 23-06-2010 03:07:06 11.2 C 7.7 g/m*3 11.2 C 0 km/h
377 23-06-2010 03:19:06 11.2 C 7.8 g/m*3 11.2 C 0 km/h
378 23-06-2010 03:31:06 11.1 C 7.66 g/m*3 11.1 C 0 km/h
379 23-06-2010 03:43:06 10.9 C 7.76 g/m*3 10.9 C 0 km/h
380 23-06-2010 03:55:06 10.7 C 7.66 g/m*3 10.7 C 0 km/h
381 23-06-2010 04:07:06 10.7 C 7.66 g/m*3 10.7 C 0 km/h
382 23-06-2010 04:19:06 10.5 C 7.66 g/m*3 10.5 C 0 km/h
383 23-06-2010 04:31:06 10.4 C 7.71 g/m*3 10.4 C 0 km/h
384 23-06-2010 04:43:06 10.3 C 7.66 g/m*3 10.3 C 0 km/h
385 23-06-2010 04:55:07 10.2 C 7.61 g/m*3 10.2 C 0 km/h
386 23-06-2010 05:07:07 10.2 C 7.71 g/m*3 10.2 C 0 km/h
387 23-06-2010 05:19:07 10.2 C 7.71 g/m*3 10.2 C 0 km/h
388 23-06-2010 05:31:07 10 C 7.61 g/m*3 10 C 0 km/h
389 23-06-2010 05:43:07 9.8 C 7.7 g/m*3 9.8 C 0 km/h
390 23-06-2010 05:55:07 9.8 C 7.7 g/m*3 9.8 C 0 km/h
391 23-06-2010 06:07:07 9.8 C 7.7 g/m*3 9.8 C 0 km/h
392 23-06-2010 06:19:04 9.8 C 7.7 g/m*3 9.8 C 0 km/h
393 23-06-2010 06:31:04 10 C 7.71 g/m*3 10 C 0 km/h
394 23-06-2010 06:43:04 10.2 C 7.8 g/m*3 10.2 C 0 km/h
395 23-06-2010 06:55:02 10.5 C 7.86 g/m*3 10.5 C 0 km/h
396 23-06-2010 07:07:02 10.7 C 7.96 g/m*3 10.7 C 0 km/h
397 23-06-2010 07:19:02 10.5 C 7.66 g/m*3 10.5 C 0 km/h
398 23-06-2010 07:31:02 10.5 C 7.66 g/m*3 10.5 C 0 km/h
399 23-06-2010 07:43:02 10.7 C 7.76 g/m*3 10.7 C 0 km/h
400 23-06-2010 07:55:02 10.8 C 7.81 g/m*3 10.8 C 0 km/h
Sensor: Nr:Datum:Temp:Abs-Feuchte:Windchill:Wind:
Aussen-T/F 401 23-06-2010 08:07:01 11 C 7.81 g/m*3 11 C 0 km/h
402 23-06-2010 08:19:01 11.5 C 7.95 g/m*3 11.5 C 0 km/h
403 23-06-2010 08:31:02 11.8 C 7.89 g/m*3 11.8 C 0 km/h
404 23-06-2010 08:43:02 12.1 C 7.83 g/m*3 12.1 C 0 km/h
405 23-06-2010 08:55:02 12.5 C 7.81 g/m*3 12.5 C 0 km/h
406 23-06-2010 09:07:02 13 C 7.83 g/m*3 13 C 0 km/h
407 23-06-2010 09:19:02 13.4 C 7.79 g/m*3 13.4 C 0 km/h
408 23-06-2010 09:31:02 14.2 C 7.82 g/m*3 14.2 C 0 km/h
409 23-06-2010 09:43:02 14.8 C 7.85 g/m*3 14.8 C 0 km/h
410 23-06-2010 09:55:02 15.4 C 7.75 g/m*3 15.4 C 0 km/h
411 23-06-2010 10:07:02 16.3 C 7.63 g/m*3 16.3 C 0 km/h
412 23-06-2010 10:19:02 17 C 7.67 g/m*3 17 C 0 km/h
413 23-06-2010 10:31:02 17.8 C 7.89 g/m*3 17.8 C 0 km/h
414 23-06-2010 10:43:02 18.6 C 7.64 g/m*3 18.6 C 0 km/h
415 23-06-2010 10:55:02 19.1 C 7.7 g/m*3 19.1 C 0 km/h
416 23-06-2010 11:07:02 19.9 C 7.9 g/m*3 19.9 C 0 km/h
417 23-06-2010 11:19:02 20.1 C 7.65 g/m*3 20.1 C 0 km/h
418 23-06-2010 11:31:02 20.6 C 7.52 g/m*3 20.6 C 0 km/h
419 23-06-2010 11:43:02 21.6 C 7.02 g/m*3 21.6 C 0 km/h
420 23-06-2010 11:55:01 23 C 6.78 g/m*3 23 C 0 km/h
421 23-06-2010 12:07:01 24.4 C 6.9 g/m*3 24.4 C 0 km/h
422 23-06-2010 12:19:01 25.4 C 6.59 g/m*3 25.4 C 0 km/h
423 23-06-2010 12:31:01 25.9 C 5.33 g/m*3 25.9 C 0 km/h
424 23-06-2010 12:43:01 26.8 C 5.35 g/m*3 26.8 C 0 km/h
425 23-06-2010 12:55:02 27.3 C 5.23 g/m*3 27.3 C 0 km/h
Sensor: Nr:Datum:Temp:Abs-Feuchte:Windchill:Wind:
Aussen-T/F 426 23-06-2010 13:07:02 27 C 5.66 g/m*3 27 C 0 km/h
427 23-06-2010 13:19:02 28.1 C 5.47 g/m*3 28.1 C 0 km/h
428 23-06-2010 13:31:02 29.1 C 5.78 g/m*3 29.1 C 0 km/h
429 23-06-2010 13:43:02 27.8 C 5.38 g/m*3 27.8 C 0 km/h
430 23-06-2010 13:55:01 28.2 C 5.5 g/m*3 28.2 C 0 km/h
431 23-06-2010 14:07:02 28.3 C 5.53 g/m*3 28.3 C 0 km/h
432 23-06-2010 14:19:02 27.4 C 5.26 g/m*3 27.4 C 0 km/h
433 23-06-2010 14:31:01 27.3 C 5.49 g/m*3 27.3 C 0 km/h
434 23-06-2010 14:43:01 26.9 C 5.37 g/m*3 26.9 C 0 km/h
435 23-06-2010 14:55:02 28.3 C 5.53 g/m*3 28.3 C 0 km/h
436 23-06-2010 15:07:01 28 C 5.44 g/m*3 28 C 0 km/h
437 23-06-2010 15:19:02 28.4 C 5.84 g/m*3 28.4 C 0 km/h
438 23-06-2010 15:31:01 29 C 5.74 g/m*3 29 C 0 km/h
439 23-06-2010 15:43:01 28.4 C 5.56 g/m*3 28.4 C 0 km/h
440 23-06-2010 15:55:02 29.4 C 5.87 g/m*3 29.4 C 0 km/h
441 23-06-2010 16:07:02 30 C 6.06 g/m*3 30 C 0 km/h
442 23-06-2010 16:19:02 30.6 C 6.26 g/m*3 30.6 C 0 km/h
443 23-06-2010 16:31:02 29.4 C 5.87 g/m*3 29.4 C 0 km/h
444 23-06-2010 16:43:02 30 C 6.06 g/m*3 30 C 0 km/h
445 23-06-2010 16:55:02 30.8 C 6.33 g/m*3 30.8 C 0 km/h
446 23-06-2010 17:07:02 30.7 C 6.3 g/m*3 30.7 C 0 km/h
447 23-06-2010 17:19:01 28.3 C 5.53 g/m*3 28.3 C 0 km/h
448 23-06-2010 17:31:02 28.4 C 5.56 g/m*3 28.4 C 0 km/h
449 23-06-2010 17:43:02 29.6 C 5.94 g/m*3 29.6 C 0 km/h
450 23-06-2010 17:55:02 30.3 C 6.16 g/m*3 30.3 C 0 km/h
Sensor: Nr:Datum:Temp:Abs-Feuchte:Windchill:Wind:
Aussen-T/F 451 23-06-2010 18:07:02 30.8 C 6.33 g/m*3 30.8 C 0 km/h
452 23-06-2010 18:19:01 30.6 C 6.26 g/m*3 30.6 C 0 km/h
453 23-06-2010 18:31:02 30.5 C 6.23 g/m*3 30.5 C 0 km/h
454 23-06-2010 18:43:02 29.5 C 5.9 g/m*3 29.5 C 0 km/h
455 23-06-2010 18:55:01 30 C 6.06 g/m*3 30 C 0 km/h
456 23-06-2010 19:07:02 29 C 5.74 g/m*3 29 C 0 km/h
457 23-06-2010 19:19:01 29.2 C 5.81 g/m*3 29.2 C 0 km/h
458 23-06-2010 19:31:02 29 C 5.74 g/m*3 29 C 0 km/h
459 23-06-2010 19:43:02 29.5 C 5.9 g/m*3 29.5 C 0 km/h
460 23-06-2010 19:55:02 29 C 5.74 g/m*3 29 C 0 km/h
461 23-06-2010 20:07:02 29 C 5.74 g/m*3 29 C 0 km/h
462 23-06-2010 20:19:01 28.5 C 6.43 g/m*3 28.5 C 0 km/h
463 23-06-2010 20:31:01 27.2 C 6.77 g/m*3 27.2 C 0 km/h
464 23-06-2010 20:43:01 26.5 C 6.76 g/m*3 26.5 C 0 km/h
465 23-06-2010 20:55:01 25.7 C 6.94 g/m*3 25.7 C 0 km/h
466 23-06-2010 21:07:02 24.3 C 6.64 g/m*3 24.3 C 0 km/h
467 23-06-2010 21:19:01 23.3 C 6.9 g/m*3 23.3 C 0 km/h
468 23-06-2010 21:31:01 22.5 C 6.99 g/m*3 22.5 C 0 km/h
469 23-06-2010 21:43:01 21.8 C 6.91 g/m*3 21.8 C 0 km/h
470 23-06-2010 21:55:01 21.5 C 6.79 g/m*3 21.5 C 0 km/h
471 23-06-2010 22:07:02 21.2 C 6.86 g/m*3 21.2 C 0 km/h
472 23-06-2010 22:19:01 20.8 C 7.06 g/m*3 20.8 C 0 km/h
473 23-06-2010 22:31:01 20.5 C 6.76 g/m*3 20.5 C 0 km/h
474 23-06-2010 22:43:01 20.3 C 7.03 g/m*3 20.3 C 0 km/h
475 23-06-2010 22:55:01 19.8 C 7 g/m*3 19.8 C 0 km/h
Sensor: Nr:Datum:Temp:Abs-Feuchte:Windchill:Wind:
Aussen-T/F 476 23-06-2010 23:07:02 19.5 C 7.05 g/m*3 19.5 C 0 km/h
477 23-06-2010 23:19:02 19.5 C 7.22 g/m*3 19.5 C 0 km/h
478 23-06-2010 23:31:01 19.1 C 7.21 g/m*3 19.1 C 0 km/h
479 23-06-2010 23:43:01 18.8 C 7.41 g/m*3 18.8 C 0 km/h
480 23-06-2010 23:55:01 18.7 C 7.36 g/m*3 18.7 C 0 km/h
481 24-06-2010 00:07:01 18.2 C 7.46 g/m*3 18.2 C 0 km/h
482 24-06-2010 00:19:02 17.8 C 7.74 g/m*3 17.8 C 0 km/h
483 24-06-2010 00:31:02 17.6 C 7.8 g/m*3 17.6 C 0 km/h
484 24-06-2010 00:43:02 17.3 C 7.96 g/m*3 17.3 C 0 km/h
485 24-06-2010 00:55:02 17 C 7.96 g/m*3 17 C 0 km/h
486 24-06-2010 01:07:02 16.8 C 8.01 g/m*3 16.8 C 0 km/h
487 24-06-2010 01:19:02 16.5 C 8.28 g/m*3 16.5 C 0 km/h
488 24-06-2010 01:31:02 16 C 8.17 g/m*3 16 C 0 km/h
489 24-06-2010 01:43:02 15.5 C 8.33 g/m*3 15.5 C 0 km/h
490 24-06-2010 01:55:02 15.6 C 8.38 g/m*3 15.6 C 0 km/h
491 24-06-2010 02:07:02 15.3 C 8.36 g/m*3 15.3 C 0 km/h
492 24-06-2010 02:19:01 15.2 C 8.18 g/m*3 15.2 C 0 km/h
493 24-06-2010 02:31:02 15.1 C 8.26 g/m*3 15.1 C 0 km/h
494 24-06-2010 02:43:02 14.8 C 8.36 g/m*3 14.8 C 0 km/h
495 24-06-2010 02:56:03 14.5 C 8.33 g/m*3 14.5 C 0 km/h
496 24-06-2010 03:08:03 14.5 C 8.46 g/m*3 14.5 C 0 km/h
497 24-06-2010 03:20:04 14.3 C 8.35 g/m*3 14.3 C 0 km/h
498 24-06-2010 03:32:02 14.2 C 8.3 g/m*3 14.2 C 0 km/h
499 24-06-2010 03:44:03 14.1 C 8.25 g/m*3 14.1 C 0 km/h
500 24-06-2010 03:56:03 13.8 C 8.34 g/m*3 13.8 C 0 km/h
Sensor: Nr:Datum:Temp:Abs-Feuchte:Windchill:Wind:
Aussen-T/F 501 24-06-2010 04:08:02 13.4 C 8.37 g/m*3 13.4 C 0 km/h
502 24-06-2010 04:20:02 13.4 C 8.37 g/m*3 13.4 C 0 km/h
503 24-06-2010 04:32:02 13.2 C 8.38 g/m*3 13.2 C 0 km/h
504 24-06-2010 04:44:02 13.1 C 8.44 g/m*3 13.1 C 0 km/h
505 24-06-2010 04:56:02 12.9 C 8.45 g/m*3 12.9 C 0 km/h
506 24-06-2010 05:08:01 12.8 C 8.4 g/m*3 12.8 C 0 km/h
507 24-06-2010 05:20:01 12.8 C 8.4 g/m*3 12.8 C 0 km/h
508 24-06-2010 05:32:02 12.7 C 8.46 g/m*3 12.7 C 0 km/h
509 24-06-2010 05:44:02 12.4 C 8.41 g/m*3 12.4 C 0 km/h
510 24-06-2010 05:56:02 12.4 C 8.41 g/m*3 12.4 C 0 km/h
511 24-06-2010 06:08:01 12.6 C 8.52 g/m*3 12.6 C 0 km/h
512 24-06-2010 06:20:02 12.6 C 8.41 g/m*3 12.6 C 0 km/h
513 24-06-2010 06:32:02 12.6 C 8.52 g/m*3 12.6 C 0 km/h
514 24-06-2010 06:44:02 12.7 C 8.57 g/m*3 12.7 C 0 km/h
515 24-06-2010 06:56:01 13 C 8.62 g/m*3 13 C 0 km/h
516 24-06-2010 07:08:02 13.1 C 8.44 g/m*3 13.1 C 0 km/h
517 24-06-2010 07:20:01 13.3 C 8.55 g/m*3 13.3 C 0 km/h
518 24-06-2010 07:32:01 13.4 C 8.37 g/m*3 13.4 C 0 km/h
519 24-06-2010 07:44:01 13.6 C 8.36 g/m*3 13.6 C 0 km/h
520 24-06-2010 07:56:02 13.7 C 8.41 g/m*3 13.7 C 0 km/h
521 24-06-2010 08:08:02 14 C 8.44 g/m*3 14 C 0 km/h
522 24-06-2010 08:20:01 14.4 C 8.53 g/m*3 14.4 C 0 km/h
523 24-06-2010 08:32:02 14.7 C 8.69 g/m*3 14.7 C 0 km/h
524 24-06-2010 08:44:02 15.2 C 8.57 g/m*3 15.2 C 0 km/h
525 24-06-2010 08:56:02 15.5 C 8.72 g/m*3 15.5 C 0 km/h
Sensor: Nr:Datum:Temp:Abs-Feuchte:Windchill:Wind:
Aussen-T/F 526 24-06-2010 09:08:02 16 C 8.58 g/m*3 16 C 0 km/h
527 24-06-2010 09:20:01 16.6 C 8.76 g/m*3 16.6 C 0 km/h
528 24-06-2010 09:32:02 17.3 C 8.4 g/m*3 17.3 C 0 km/h
529 24-06-2010 09:44:02 18.4 C 8.65 g/m*3 18.4 C 0 km/h
530 24-06-2010 09:56:02 19 C 8.31 g/m*3 19 C 0 km/h
531 24-06-2010 10:08:02 19.6 C 8.44 g/m*3 19.6 C 0 km/h
532 24-06-2010 10:20:01 20.9 C 8.92 g/m*3 20.9 C 0 km/h
533 24-06-2010 10:32:02 21.6 C 8.72 g/m*3 21.6 C 0 km/h
534 24-06-2010 10:44:02 22.4 C 8.54 g/m*3 22.4 C 0 km/h
535 24-06-2010 10:56:01 23 C 8.22 g/m*3 23 C 0 km/h
536 24-06-2010 11:08:02 23.6 C 8.29 g/m*3 23.6 C 0 km/h
537 24-06-2010 11:20:02 24.1 C 8.1 g/m*3 24.1 C 0 km/h
538 24-06-2010 11:32:02 24.9 C 7.55 g/m*3 24.9 C 0 km/h
539 24-06-2010 11:44:02 26 C 7.55 g/m*3 26 C 0 km/h
540 24-06-2010 11:56:01 26.2 C 6.89 g/m*3 26.2 C 0 km/h
541 24-06-2010 12:08:02 27.5 C 6.61 g/m*3 27.5 C 0 km/h
542 24-06-2010 12:20:02 28.4 C 6.12 g/m*3 28.4 C 0 km/h
543 24-06-2010 12:32:02 29.2 C 5.81 g/m*3 29.2 C 0 km/h
544 24-06-2010 12:44:02 28.4 C 5.56 g/m*3 28.4 C 0 km/h
545 24-06-2010 12:56:01 30.1 C 6.1 g/m*3 30.1 C 0 km/h
546 24-06-2010 13:08:02 30.1 C 6.1 g/m*3 30.1 C 0 km/h
547 24-06-2010 13:20:02 30.4 C 6.2 g/m*3 30.4 C 0 km/h
548 24-06-2010 13:32:01 30.7 C 6.3 g/m*3 30.7 C 0 km/h
549 24-06-2010 13:44:01 30.4 C 6.2 g/m*3 30.4 C 0 km/h
550 24-06-2010 13:56:02 30.1 C 6.1 g/m*3 30.1 C 0 km/h
Sensor: Nr:Datum:Temp:Abs-Feuchte:Windchill:Wind:
Aussen-T/F 551 24-06-2010 14:08:01 30.4 C 6.2 g/m*3 30.4 C 0 km/h
552 24-06-2010 14:20:02 29.6 C 5.94 g/m*3 29.6 C 0 km/h
553 24-06-2010 14:32:01 29.1 C 5.78 g/m*3 29.1 C 0 km/h
554 24-06-2010 14:44:01 29.5 C 5.9 g/m*3 29.5 C 0 km/h
555 24-06-2010 14:56:02 30 C 6.06 g/m*3 30 C 0 km/h
556 24-06-2010 15:08:01 30.3 C 6.16 g/m*3 30.3 C 0 km/h
557 24-06-2010 15:20:02 31.2 C 6.47 g/m*3 31.2 C 0 km/h
558 24-06-2010 15:32:01 31 C 6.4 g/m*3 31 C 0 km/h
559 24-06-2010 15:44:01 31.3 C 6.5 g/m*3 31.3 C 0 km/h
560 24-06-2010 15:56:01 30.7 C 6.3 g/m*3 30.7 C 0 km/h
561 24-06-2010 16:08:01 30.6 C 6.26 g/m*3 30.6 C 0 km/h
562 24-06-2010 16:20:02 31.3 C 6.5 g/m*3 31.3 C 0 km/h
563 24-06-2010 16:32:01 31.2 C 6.47 g/m*3 31.2 C 0 km/h
564 24-06-2010 16:44:01 32 C 6.75 g/m*3 32 C 0 km/h
565 24-06-2010 16:56:01 31.5 C 6.57 g/m*3 31.5 C 0 km/h
566 24-06-2010 17:08:01 32.3 C 6.86 g/m*3 32.3 C 0 km/h
567 24-06-2010 17:20:02 32.4 C 6.9 g/m*3 32.4 C 0 km/h
568 24-06-2010 17:32:01 32.8 C 7.04 g/m*3 32.8 C 0 km/h
569 24-06-2010 17:44:01 32.9 C 7.08 g/m*3 32.9 C 0 km/h
570 24-06-2010 17:56:02 32.8 C 7.04 g/m*3 32.8 C 0 km/h
571 24-06-2010 18:08:02 32.1 C 6.79 g/m*3 32.1 C 0 km/h
572 24-06-2010 18:20:03 32.4 C 6.9 g/m*3 32.4 C 0 km/h
573 24-06-2010 18:32:02 32.8 C 7.04 g/m*3 32.8 C 0 km/h
574 24-06-2010 18:44:02 33 C 7.12 g/m*3 33 C 0 km/h
575 24-06-2010 18:56:02 32.9 C 7.08 g/m*3 32.9 C 0 km/h
Sensor: Nr:Datum:Temp:Abs-Feuchte:Windchill:Wind:
Aussen-T/F 576 24-06-2010 19:08:02 32.2 C 6.82 g/m*3 32.2 C 0 km/h
577 24-06-2010 19:20:03 31.8 C 6.68 g/m*3 31.8 C 0 km/h
578 24-06-2010 19:32:02 31.4 C 6.54 g/m*3 31.4 C 0 km/h
579 24-06-2010 19:44:02 31.4 C 6.54 g/m*3 31.4 C 0 km/h
580 24-06-2010 19:56:03 31.8 C 6.68 g/m*3 31.8 C 0 km/h
581 24-06-2010 20:08:02 31.5 C 6.57 g/m*3 31.5 C 0 km/h
582 24-06-2010 20:20:02 31.2 C 6.47 g/m*3 31.2 C 0 km/h
583 24-06-2010 20:32:02 30.5 C 6.85 g/m*3 30.5 C 0 km/h
584 24-06-2010 20:44:02 29.4 C 7.34 g/m*3 29.4 C 0 km/h
585 24-06-2010 20:56:02 28.1 C 7.11 g/m*3 28.1 C 0 km/h
586 24-06-2010 21:08:02 26.9 C 6.91 g/m*3 26.9 C 0 km/h
587 24-06-2010 21:20:02 25.8 C 7.22 g/m*3 25.8 C 0 km/h
588 24-06-2010 21:32:02 24.8 C 7.06 g/m*3 24.8 C 0 km/h
589 24-06-2010 21:44:02 24.5 C 7.16 g/m*3 24.5 C 0 km/h
590 24-06-2010 21:56:02 24.2 C 7.04 g/m*3 24.2 C 0 km/h
591 24-06-2010 22:08:02 23.7 C 7.49 g/m*3 23.7 C 0 km/h
592 24-06-2010 22:21:03 23.4 C 7.36 g/m*3 23.4 C 0 km/h
593 24-06-2010 22:33:03 22.9 C 7.56 g/m*3 22.9 C 0 km/h
594 24-06-2010 22:45:03 22.6 C 7.43 g/m*3 22.6 C 0 km/h
595 24-06-2010 22:57:03 22.2 C 7.46 g/m*3 22.2 C 0 km/h
596 24-06-2010 23:09:03 22 C 7.38 g/m*3 22 C 0 km/h
597 24-06-2010 23:21:03 21.8 C 7.67 g/m*3 21.8 C 0 km/h
598 24-06-2010 23:33:03 21.5 C 7.73 g/m*3 21.5 C 0 km/h
599 24-06-2010 23:45:04 20.9 C 7.83 g/m*3 20.9 C 0 km/h
600 24-06-2010 23:57:04 20.7 C 7.92 g/m*3 20.7 C 0 km/h
Sensor: Nr:Datum:Temp:Abs-Feuchte:Windchill:Wind:
Aussen-T/F 601 25-06-2010 00:09:04 20.6 C 7.87 g/m*3 20.6 C 0 km/h
602 25-06-2010 00:21:04 20.4 C 7.96 g/m*3 20.4 C 0 km/h
603 25-06-2010 00:33:04 20 C 7.95 g/m*3 20 C 0 km/h
604 25-06-2010 00:45:04 19.7 C 8.15 g/m*3 19.7 C 0 km/h
605 25-06-2010 00:57:04 19.5 C 8.22 g/m*3 19.5 C 0 km/h
606 25-06-2010 01:09:04 19.1 C 8.2 g/m*3 19.1 C 0 km/h
607 25-06-2010 01:21:04 19.1 C 8.2 g/m*3 19.1 C 0 km/h
608 25-06-2010 01:33:04 18.9 C 8.42 g/m*3 18.9 C 0 km/h
609 25-06-2010 01:45:04 18.6 C 8.44 g/m*3 18.6 C 0 km/h
610 25-06-2010 01:57:04 18.6 C 8.59 g/m*3 18.6 C 0 km/h
611 25-06-2010 02:09:04 18.3 C 8.76 g/m*3 18.3 C 0 km/h
612 25-06-2010 02:21:04 18.7 C 8.81 g/m*3 18.7 C 0 km/h
613 25-06-2010 02:33:04 18.7 C 8.81 g/m*3 18.7 C 0 km/h
614 25-06-2010 02:45:04 18.3 C 8.76 g/m*3 18.3 C 0 km/h
615 25-06-2010 02:57:04 18 C 8.75 g/m*3 18 C 0 km/h
616 25-06-2010 03:09:04 17.4 C 8.89 g/m*3 17.4 C 0 km/h
617 25-06-2010 03:21:04 17.2 C 9.08 g/m*3 17.2 C 0 km/h
618 25-06-2010 03:33:04 17 C 9.12 g/m*3 17 C 0 km/h
619 25-06-2010 03:45:04 16.9 C 9.21 g/m*3 16.9 C 0 km/h
620 25-06-2010 03:57:05 16.8 C 9.29 g/m*3 16.8 C 0 km/h
621 25-06-2010 04:09:05 17 C 9.26 g/m*3 17 C 0 km/h
622 25-06-2010 04:21:05 16.7 C 9.24 g/m*3 16.7 C 0 km/h
623 25-06-2010 04:33:05 16.6 C 9.32 g/m*3 16.6 C 0 km/h
624 25-06-2010 04:45:05 16.6 C 9.32 g/m*3 16.6 C 0 km/h
625 25-06-2010 04:57:05 16.7 C 9.38 g/m*3 16.7 C 0 km/h
Sensor: Nr:Datum:Temp:Abs-Feuchte:Windchill:Wind:
Aussen-T/F 626 25-06-2010 05:09:05 16.5 C 9.27 g/m*3 16.5 C 0 km/h
627 25-06-2010 05:21:05 16.2 C 9.38 g/m*3 16.2 C 0 km/h
628 25-06-2010 05:33:05 16 C 9.26 g/m*3 16 C 0 km/h
629 25-06-2010 05:45:05 16 C 9.4 g/m*3 16 C 0 km/h
630 25-06-2010 05:57:05 16.1 C 9.46 g/m*3 16.1 C 0 km/h
631 25-06-2010 06:09:05 16.2 C 9.52 g/m*3 16.2 C 0 km/h
632 25-06-2010 06:21:05 16.1 C 9.46 g/m*3 16.1 C 0 km/h
633 25-06-2010 06:33:05 16.3 C 9.57 g/m*3 16.3 C 0 km/h
634 25-06-2010 06:45:05 16.2 C 9.52 g/m*3 16.2 C 0 km/h
635 25-06-2010 06:57:05 16.3 C 9.57 g/m*3 16.3 C 0 km/h
636 25-06-2010 07:09:03 16.6 C 9.75 g/m*3 16.6 C 0 km/h
637 25-06-2010 07:21:03 16.7 C 9.66 g/m*3 16.7 C 0 km/h
638 25-06-2010 07:33:04 17.1 C 9.61 g/m*3 17.1 C 0 km/h
639 25-06-2010 07:45:02 17.5 C 9.69 g/m*3 17.5 C 0 km/h
640 25-06-2010 07:57:02 17.7 C 9.66 g/m*3 17.7 C 0 km/h
641 25-06-2010 08:09:02 18.1 C 9.73 g/m*3 18.1 C 0 km/h
642 25-06-2010 08:21:02 19 C 9.61 g/m*3 19 C 0 km/h
643 25-06-2010 08:33:02 19.4 C 9.34 g/m*3 19.4 C 0 km/h
644 25-06-2010 08:45:02 19.4 C 9.18 g/m*3 19.4 C 0 km/h
645 25-06-2010 08:57:02 19.3 C 9.12 g/m*3 19.3 C 0 km/h
646 25-06-2010 09:09:03 19.4 C 9.01 g/m*3 19.4 C 0 km/h
647 25-06-2010 09:21:02 20 C 8.99 g/m*3 20 C 0 km/h
648 25-06-2010 09:33:02 20.4 C 9.2 g/m*3 20.4 C 0 km/h
649 25-06-2010 09:45:01 20.6 C 9.13 g/m*3 20.6 C 0 km/h
650 25-06-2010 09:57:01 21.5 C 9.43 g/m*3 21.5 C 0 km/h
Sensor: Nr:Datum:Temp:Abs-Feuchte:Windchill:Wind:
Aussen-T/F 651 25-06-2010 10:09:02 21.8 C 9.02 g/m*3 21.8 C 0 km/h
652 25-06-2010 10:21:01 22.4 C 8.94 g/m*3 22.4 C 0 km/h
653 25-06-2010 10:33:02 22.7 C 8.69 g/m*3 22.7 C 0 km/h
654 25-06-2010 10:45:01 22.9 C 8.58 g/m*3 22.9 C 0 km/h
655 25-06-2010 10:57:01 23.1 C 8.48 g/m*3 23.1 C 0 km/h
656 25-06-2010 11:09:02 23.5 C 8.25 g/m*3 23.5 C 0 km/h
657 25-06-2010 11:21:01 23.6 C 8.29 g/m*3 23.6 C 0 km/h
658 25-06-2010 11:33:02 24 C 8.27 g/m*3 24 C 0 km/h
659 25-06-2010 11:45:01 24.2 C 8.14 g/m*3 24.2 C 0 km/h
660 25-06-2010 11:57:01 26.3 C 8.17 g/m*3 26.3 C 0 km/h
661 25-06-2010 12:09:02 26.2 C 7.88 g/m*3 26.2 C 0 km/h
662 25-06-2010 12:21:02 27.4 C 8.16 g/m*3 27.4 C 0 km/h
663 25-06-2010 12:33:01 27.9 C 7.57 g/m*3 27.9 C 0 km/h
664 25-06-2010 12:45:02 28.9 C 8 g/m*3 28.9 C 0 km/h
665 25-06-2010 12:57:02 28.2 C 7.42 g/m*3 28.2 C 0 km/h
666 25-06-2010 13:09:01 29.1 C 7.51 g/m*3 29.1 C 0 km/h
667 25-06-2010 13:21:02 29.1 C 7.22 g/m*3 29.1 C 0 km/h
668 25-06-2010 13:33:01 29.3 C 7.3 g/m*3 29.3 C 0 km/h
669 25-06-2010 13:45:03 29 C 7.18 g/m*3 29 C 0 km/h
670 25-06-2010 13:57:03 28.7 C 7.06 g/m*3 28.7 C 0 km/h
671 25-06-2010 14:09:02 29.4 C 7.05 g/m*3 29.4 C 0 km/h
672 25-06-2010 14:21:02 28.6 C 7.03 g/m*3 28.6 C 0 km/h
673 25-06-2010 14:33:03 28.4 C 6.95 g/m*3 28.4 C 0 km/h
674 25-06-2010 14:45:02 28.9 C 7.14 g/m*3 28.9 C 0 km/h
675 25-06-2010 14:57:03 28.9 C 6.57 g/m*3 28.9 C 0 km/h
Sensor: Nr:Datum:Temp:Abs-Feuchte:Windchill:Wind:
Aussen-T/F 676 25-06-2010 15:09:01 28.9 C 6.57 g/m*3 28.9 C 0 km/h
677 25-06-2010 15:21:02 29.4 C 6.46 g/m*3 29.4 C 0 km/h
678 25-06-2010 15:33:02 29.2 C 6.97 g/m*3 29.2 C 0 km/h
679 25-06-2010 15:45:01 30.2 C 6.13 g/m*3 30.2 C 0 km/h
680 25-06-2010 15:57:01 30.3 C 6.16 g/m*3 30.3 C 0 km/h
681 25-06-2010 16:09:02 29.6 C 5.94 g/m*3 29.6 C 0 km/h
682 25-06-2010 16:21:01 30.3 C 6.16 g/m*3 30.3 C 0 km/h
683 25-06-2010 16:33:01 30.7 C 6.3 g/m*3 30.7 C 0 km/h
684 25-06-2010 16:45:02 30.4 C 6.2 g/m*3 30.4 C 0 km/h
685 25-06-2010 16:57:02 30.2 C 6.13 g/m*3 30.2 C 0 km/h
686 25-06-2010 17:09:02 30.8 C 6.33 g/m*3 30.8 C 0 km/h
687 25-06-2010 17:21:01 30.8 C 6.33 g/m*3 30.8 C 0 km/h
688 25-06-2010 17:33:02 31.2 C 6.47 g/m*3 31.2 C 0 km/h
689 25-06-2010 17:45:02 30.6 C 6.26 g/m*3 30.6 C 0 km/h
690 25-06-2010 17:57:02 30.1 C 6.1 g/m*3 30.1 C 0 km/h
691 25-06-2010 18:09:02 30.4 C 6.2 g/m*3 30.4 C 0 km/h
692 25-06-2010 18:21:01 30.8 C 6.33 g/m*3 30.8 C 0 km/h
693 25-06-2010 18:33:02 31.1 C 6.43 g/m*3 31.1 C 0 km/h
694 25-06-2010 18:45:02 30.7 C 6.3 g/m*3 30.7 C 0 km/h
695 25-06-2010 18:57:02 30.7 C 6.3 g/m*3 30.7 C 0 km/h
696 25-06-2010 19:09:02 30.7 C 6.3 g/m*3 30.7 C 0 km/h
697 25-06-2010 19:21:02 30.7 C 6.3 g/m*3 30.7 C 0 km/h
698 25-06-2010 19:33:02 30 C 6.06 g/m*3 30 C 0 km/h
699 25-06-2010 19:45:02 29.9 C 6.03 g/m*3 29.9 C 0 km/h
700 25-06-2010 19:57:02 29.7 C 6.27 g/m*3 29.7 C 0 km/h
Sensor: Nr:Datum:Temp:Abs-Feuchte:Windchill:Wind:
Aussen-T/F 701 25-06-2010 20:09:03 29.7 C 6.27 g/m*3 29.7 C 0 km/h
702 25-06-2010 20:21:02 28.5 C 5.59 g/m*3 28.5 C 0 km/h
703 25-06-2010 20:33:03 28 C 5.71 g/m*3 28 C 0 km/h
704 25-06-2010 20:45:02 27.8 C 6.19 g/m*3 27.8 C 0 km/h
705 25-06-2010 20:57:02 27.2 C 6.25 g/m*3 27.2 C 0 km/h
706 25-06-2010 21:09:02 26.3 C 6.44 g/m*3 26.3 C 0 km/h
707 25-06-2010 21:21:02 25.8 C 7.22 g/m*3 25.8 C 0 km/h
708 25-06-2010 21:33:02 24.9 C 7.1 g/m*3 24.9 C 0 km/h
709 25-06-2010 21:45:02 24.1 C 7.22 g/m*3 24.1 C 0 km/h
710 25-06-2010 21:57:02 23.8 C 7.31 g/m*3 23.8 C 0 km/h
711 25-06-2010 22:09:02 23.3 C 7.32 g/m*3 23.3 C 0 km/h
712 25-06-2010 22:21:01 23 C 7.4 g/m*3 23 C 0 km/h
713 25-06-2010 22:33:01 22.7 C 7.48 g/m*3 22.7 C 0 km/h
714 25-06-2010 22:45:01 22.2 C 7.46 g/m*3 22.2 C 0 km/h
715 25-06-2010 22:57:01 22 C 7.57 g/m*3 22 C 0 km/h
716 25-06-2010 23:09:01 21.5 C 7.54 g/m*3 21.5 C 0 km/h
717 25-06-2010 23:21:01 21.4 C 7.69 g/m*3 21.4 C 0 km/h
718 25-06-2010 23:33:01 21 C 7.51 g/m*3 21 C 0 km/h
719 25-06-2010 23:45:01 20.8 C 8.15 g/m*3 20.8 C 0 km/h
720 25-06-2010 23:57:01 20.5 C 8.01 g/m*3 20.5 C 0 km/h
721 26-06-2010 00:09:01 20.3 C 8.09 g/m*3 20.3 C 0 km/h
722 26-06-2010 00:21:01 20.2 C 8.04 g/m*3 20.2 C 0 km/h
723 26-06-2010 00:33:02 19.7 C 8.15 g/m*3 19.7 C 0 km/h
724 26-06-2010 00:45:02 19.3 C 8.29 g/m*3 19.3 C 0 km/h
725 26-06-2010 00:57:02 18.9 C 8.26 g/m*3 18.9 C 0 km/h
Sensor: Nr:Datum:Temp:Abs-Feuchte:Windchill:Wind:
Aussen-T/F 726 26-06-2010 01:09:02 18.7 C 8.33 g/m*3 18.7 C 0 km/h
727 26-06-2010 01:21:02 18.9 C 8.42 g/m*3 18.9 C 0 km/h
728 26-06-2010 01:33:02 18.7 C 8.33 g/m*3 18.7 C 0 km/h
729 26-06-2010 01:45:02 18.5 C 8.23 g/m*3 18.5 C 0 km/h
730 26-06-2010 01:57:02 18.2 C 8.24 g/m*3 18.2 C 0 km/h
731 26-06-2010 02:09:02 17.9 C 8.55 g/m*3 17.9 C 0 km/h
732 26-06-2010 02:21:02 17.7 C 8.45 g/m*3 17.7 C 0 km/h
733 26-06-2010 02:33:02 17.4 C 8.6 g/m*3 17.4 C 0 km/h
734 26-06-2010 02:45:02 17.1 C 8.59 g/m*3 17.1 C 0 km/h
735 26-06-2010 02:57:02 17 C 8.54 g/m*3 17 C 0 km/h
736 26-06-2010 03:09:02 16.9 C 8.63 g/m*3 16.9 C 0 km/h
737 26-06-2010 03:21:02 16.5 C 8.57 g/m*3 16.5 C 0 km/h
738 26-06-2010 03:33:02 16.5 C 8.71 g/m*3 16.5 C 0 km/h
739 26-06-2010 03:45:02 16.3 C 8.74 g/m*3 16.3 C 0 km/h
740 26-06-2010 03:57:02 16.1 C 8.64 g/m*3 16.1 C 0 km/h
741 26-06-2010 04:09:02 15.9 C 8.8 g/m*3 15.9 C 0 km/h
742 26-06-2010 04:21:02 15.6 C 8.78 g/m*3 15.6 C 0 km/h
743 26-06-2010 04:33:03 15.5 C 8.86 g/m*3 15.5 C 0 km/h
744 26-06-2010 04:45:03 15.3 C 8.88 g/m*3 15.3 C 0 km/h
745 26-06-2010 04:57:03 15.2 C 8.83 g/m*3 15.2 C 0 km/h
746 26-06-2010 05:09:03 15 C 8.85 g/m*3 15 C 0 km/h
747 26-06-2010 05:21:03 14.8 C 8.87 g/m*3 14.8 C 0 km/h
748 26-06-2010 05:33:03 14.8 C 8.87 g/m*3 14.8 C 0 km/h
749 26-06-2010 05:45:03 14.7 C 9.07 g/m*3 14.7 C 0 km/h
750 26-06-2010 05:57:03 14.5 C 8.95 g/m*3 14.5 C 0 km/h
Sensor: Nr:Datum:Temp:Abs-Feuchte:Windchill:Wind:
Aussen-T/F 751 26-06-2010 06:09:03 14.4 C 9.15 g/m*3 14.4 C 0 km/h
752 26-06-2010 06:21:03 14.5 C 9.2 g/m*3 14.5 C 0 km/h
753 26-06-2010 06:33:03 14.7 C 9.19 g/m*3 14.7 C 0 km/h
754 26-06-2010 06:45:03 14.9 C 9.3 g/m*3 14.9 C 0 km/h
755 26-06-2010 06:57:03 15.2 C 9.22 g/m*3 15.2 C 0 km/h
756 26-06-2010 07:09:03 15.2 C 9.22 g/m*3 15.2 C 0 km/h
757 26-06-2010 07:21:03 15.3 C 9.27 g/m*3 15.3 C 0 km/h
758 26-06-2010 07:33:03 15.4 C 9.33 g/m*3 15.4 C 0 km/h
759 26-06-2010 07:45:03 15.4 C 9.33 g/m*3 15.4 C 0 km/h
760 26-06-2010 07:57:03 15.6 C 9.44 g/m*3 15.6 C 0 km/h
761 26-06-2010 08:09:03 15.8 C 9.42 g/m*3 15.8 C 0 km/h
762 26-06-2010 08:21:03 16.3 C 9.57 g/m*3 16.3 C 0 km/h
763 26-06-2010 08:33:03 16.8 C 9.72 g/m*3 16.8 C 0 km/h
764 26-06-2010 08:45:01 17.3 C 9.43 g/m*3 17.3 C 0 km/h
765 26-06-2010 08:57:01 17.8 C 9.41 g/m*3 17.8 C 0 km/h
766 26-06-2010 09:09:02 18.4 C 9.59 g/m*3 18.4 C 0 km/h
767 26-06-2010 09:21:01 18.9 C 9.72 g/m*3 18.9 C 0 km/h
768 26-06-2010 09:33:02 19.4 C 9.68 g/m*3 19.4 C 0 km/h
769 26-06-2010 09:45:01 20.2 C 9.44 g/m*3 20.2 C 0 km/h
770 26-06-2010 09:57:01 20.9 C 9.47 g/m*3 20.9 C 0 km/h
771 26-06-2010 10:09:02 21.8 C 9.4 g/m*3 21.8 C 0 km/h
772 26-06-2010 10:21:01 22.4 C 8.94 g/m*3 22.4 C 0 km/h
773 26-06-2010 10:33:01 23 C 9.04 g/m*3 23 C 0 km/h
774 26-06-2010 10:45:01 23.6 C 8.72 g/m*3 23.6 C 0 km/h
775 26-06-2010 10:57:01 24.3 C 8.19 g/m*3 24.3 C 0 km/h
Sensor: Nr:Datum:Temp:Abs-Feuchte:Windchill:Wind:
Aussen-T/F 776 26-06-2010 11:09:01 24.6 C 7.88 g/m*3 24.6 C 0 km/h
777 26-06-2010 11:21:02 25.8 C 7.7 g/m*3 25.8 C 0 km/h
778 26-06-2010 11:33:01 26.4 C 7.47 g/m*3 26.4 C 0 km/h
779 26-06-2010 11:45:01 26.8 C 6.62 g/m*3 26.8 C 0 km/h
780 26-06-2010 11:57:01 27.3 C 6.28 g/m*3 27.3 C 0 km/h
781 26-06-2010 12:09:01 27.8 C 6.72 g/m*3 27.8 C 0 km/h
782 26-06-2010 12:21:02 28.4 C 6.39 g/m*3 28.4 C 0 km/h
783 26-06-2010 12:33:01 29.6 C 6.53 g/m*3 29.6 C 0 km/h
784 26-06-2010 12:45:02 30.3 C 6.16 g/m*3 30.3 C 0 km/h
785 26-06-2010 12:57:02 30.9 C 6.37 g/m*3 30.9 C 0 km/h
786 26-06-2010 13:09:01 31.3 C 6.5 g/m*3 31.3 C 0 km/h
787 26-06-2010 13:21:02 30.5 C 6.23 g/m*3 30.5 C 0 km/h
788 26-06-2010 13:33:01 31 C 6.4 g/m*3 31 C 0 km/h
789 26-06-2010 13:45:02 31.8 C 6.68 g/m*3 31.8 C 0 km/h
790 26-06-2010 13:57:02 30.8 C 6.33 g/m*3 30.8 C 0 km/h
791 26-06-2010 14:09:02 30.6 C 6.26 g/m*3 30.6 C 0 km/h
792 26-06-2010 14:21:01 28.8 C 5.68 g/m*3 28.8 C 0 km/h
793 26-06-2010 14:33:01 29.7 C 5.97 g/m*3 29.7 C 0 km/h
794 26-06-2010 14:45:01 28.9 C 5.71 g/m*3 28.9 C 0 km/h
795 26-06-2010 14:57:01 29.6 C 5.94 g/m*3 29.6 C 0 km/h
796 26-06-2010 15:09:02 29.9 C 6.03 g/m*3 29.9 C 0 km/h
797 26-06-2010 15:21:01 30 C 6.06 g/m*3 30 C 0 km/h
798 26-06-2010 15:33:01 30 C 6.06 g/m*3 30 C 0 km/h
799 26-06-2010 15:45:01 31.5 C 6.57 g/m*3 31.5 C 0 km/h
800 26-06-2010 15:57:01 31.9 C 6.72 g/m*3 31.9 C 0 km/h
Sensor: Nr:Datum:Temp:Abs-Feuchte:Windchill:Wind:
Aussen-T/F 801 26-06-2010 16:09:01 32.1 C 6.79 g/m*3 32.1 C 0 km/h
802 26-06-2010 16:21:02 31.3 C 6.5 g/m*3 31.3 C 0 km/h
803 26-06-2010 16:33:01 31.4 C 6.54 g/m*3 31.4 C 0 km/h
804 26-06-2010 16:45:02 31.9 C 6.72 g/m*3 31.9 C 0 km/h
805 26-06-2010 16:57:02 31.5 C 6.57 g/m*3 31.5 C 0 km/h
806 26-06-2010 17:09:01 32.4 C 6.9 g/m*3 32.4 C 0 km/h
807 26-06-2010 17:21:02 32.5 C 6.93 g/m*3 32.5 C 0 km/h
808 26-06-2010 17:33:01 32.9 C 7.08 g/m*3 32.9 C 0 km/h
809 26-06-2010 17:45:02 33.1 C 7.16 g/m*3 33.1 C 0 km/h
810 26-06-2010 17:57:02 33.3 C 7.23 g/m*3 33.3 C 0 km/h
811 26-06-2010 18:09:01 33.1 C 7.16 g/m*3 33.1 C 0 km/h
812 26-06-2010 18:21:01 32.4 C 6.9 g/m*3 32.4 C 0 km/h
813 26-06-2010 18:33:03 31.4 C 6.54 g/m*3 31.4 C 0 km/h
814 26-06-2010 18:45:02 31.9 C 6.72 g/m*3 31.9 C 0 km/h
815 26-06-2010 18:57:02 31.4 C 6.54 g/m*3 31.4 C 0 km/h
816 26-06-2010 19:09:01 31.4 C 6.54 g/m*3 31.4 C 0 km/h
817 26-06-2010 19:21:01 31.3 C 6.5 g/m*3 31.3 C 0 km/h
818 26-06-2010 19:33:02 31.3 C 6.5 g/m*3 31.3 C 0 km/h
819 26-06-2010 19:45:01 31.2 C 6.47 g/m*3 31.2 C 0 km/h
820 26-06-2010 19:57:01 31 C 6.4 g/m*3 31 C 0 km/h
821 26-06-2010 20:09:02 30.7 C 6.3 g/m*3 30.7 C 0 km/h
822 26-06-2010 20:21:01 30.4 C 6.2 g/m*3 30.4 C 0 km/h
823 26-06-2010 20:33:02 30.4 C 6.2 g/m*3 30.4 C 0 km/h
824 26-06-2010 20:45:01 30.1 C 6.4 g/m*3 30.1 C 0 km/h
825 26-06-2010 20:57:01 29.1 C 7.22 g/m*3 29.1 C 0 km/h
Sensor: Nr:Datum:Temp:Abs-Feuchte:Windchill:Wind:
Aussen-T/F 826 26-06-2010 21:09:02 27.8 C 7.26 g/m*3 27.8 C 0 km/h
827 26-06-2010 21:21:01 26.4 C 6.97 g/m*3 26.4 C 0 km/h
828 26-06-2010 21:33:01 25.8 C 6.98 g/m*3 25.8 C 0 km/h
829 26-06-2010 21:45:01 25 C 6.91 g/m*3 25 C 0 km/h
830 26-06-2010 21:57:01 24.3 C 7.3 g/m*3 24.3 C 0 km/h
831 26-06-2010 22:09:02 24 C 6.74 g/m*3 24 C 0 km/h
832 26-06-2010 22:21:01 23.4 C 7.57 g/m*3 23.4 C 0 km/h
833 26-06-2010 22:33:02 23.2 C 7.48 g/m*3 23.2 C 0 km/h
834 26-06-2010 22:45:01 22.9 C 7.97 g/m*3 22.9 C 0 km/h
835 26-06-2010 22:57:01 22.3 C 7.9 g/m*3 22.3 C 0 km/h
836 26-06-2010 23:09:02 22.2 C 8.05 g/m*3 22.2 C 0 km/h
837 26-06-2010 23:21:01 21.8 C 8.06 g/m*3 21.8 C 0 km/h
838 26-06-2010 23:33:01 21.4 C 7.69 g/m*3 21.4 C 0 km/h
839 26-06-2010 23:45:01 21.4 C 7.87 g/m*3 21.4 C 0 km/h
840 26-06-2010 23:57:01 21 C 7.51 g/m*3 21 C 0 km/h
841 27-06-2010 00:09:01 20.7 C 7.74 g/m*3 20.7 C 0 km/h
842 27-06-2010 00:21:01 20.5 C 8.01 g/m*3 20.5 C 0 km/h
843 27-06-2010 00:33:02 20 C 7.95 g/m*3 20 C 0 km/h
844 27-06-2010 00:45:01 19.7 C 7.98 g/m*3 19.7 C 0 km/h
845 27-06-2010 00:57:01 19.5 C 8.06 g/m*3 19.5 C 0 km/h
846 27-06-2010 01:09:02 19.4 C 8.18 g/m*3 19.4 C 0 km/h
847 27-06-2010 01:21:01 18.9 C 8.26 g/m*3 18.9 C 0 km/h
848 27-06-2010 01:33:01 18.7 C 8.33 g/m*3 18.7 C 0 km/h
849 27-06-2010 01:45:01 18.5 C 8.39 g/m*3 18.5 C 0 km/h
850 27-06-2010 01:57:01 18.3 C 8.44 g/m*3 18.3 C 0 km/h
Sensor: Nr:Datum:Temp:Abs-Feuchte:Windchill:Wind:
Aussen-T/F 851 27-06-2010 02:09:01 18.1 C 8.34 g/m*3 18.1 C 0 km/h
852 27-06-2010 02:21:01 17.7 C 8.6 g/m*3 17.7 C 0 km/h
853 27-06-2010 02:33:01 17.5 C 8.65 g/m*3 17.5 C 0 km/h
854 27-06-2010 02:46:10 17.3 C 8.54 g/m*3 17.3 C 0 km/h
855 27-06-2010 02:58:10 17.2 C 8.79 g/m*3 17.2 C 0 km/h
856 27-06-2010 03:10:11 17 C 8.68 g/m*3 17 C 0 km/h
857 27-06-2010 03:22:11 16.9 C 8.77 g/m*3 16.9 C 0 km/h
858 27-06-2010 03:34:02 16.7 C 8.95 g/m*3 16.7 C 0 km/h
859 27-06-2010 03:46:02 16.4 C 8.79 g/m*3 16.4 C 0 km/h
860 27-06-2010 03:58:02 16.2 C 8.96 g/m*3 16.2 C 0 km/h
861 27-06-2010 04:10:02 16.1 C 8.77 g/m*3 16.1 C 0 km/h
862 27-06-2010 04:22:03 16 C 8.99 g/m*3 16 C 0 km/h
863 27-06-2010 04:34:03 15.8 C 8.88 g/m*3 15.8 C 0 km/h
864 27-06-2010 04:46:01 15.5 C 8.86 g/m*3 15.5 C 0 km/h
865 27-06-2010 04:58:02 15.4 C 8.93 g/m*3 15.4 C 0 km/h
866 27-06-2010 05:10:01 15.2 C 8.83 g/m*3 15.2 C 0 km/h
867 27-06-2010 05:22:01 15.1 C 8.77 g/m*3 15.1 C 0 km/h
868 27-06-2010 05:34:01 15.1 C 8.9 g/m*3 15.1 C 0 km/h
869 27-06-2010 05:46:02 14.9 C 9.05 g/m*3 14.9 C 0 km/h
870 27-06-2010 05:58:02 14.9 C 9.05 g/m*3 14.9 C 0 km/h
871 27-06-2010 06:10:02 14.9 C 9.05 g/m*3 14.9 C 0 km/h
872 27-06-2010 06:22:01 15 C 9.1 g/m*3 15 C 0 km/h
873 27-06-2010 06:34:02 15 C 9.1 g/m*3 15 C 0 km/h
874 27-06-2010 06:46:02 14.9 C 9.3 g/m*3 14.9 C 0 km/h
875 27-06-2010 06:58:02 14.9 C 9.43 g/m*3 14.9 C 0 km/h
Sensor: Nr:Datum:Temp:Abs-Feuchte:Windchill:Wind:
Aussen-T/F 876 27-06-2010 07:10:02 14.8 C 9.37 g/m*3 14.8 C 0 km/h
877 27-06-2010 07:22:01 15.1 C 9.29 g/m*3 15.1 C 0 km/h
878 27-06-2010 07:34:02 15.4 C 9.46 g/m*3 15.4 C 0 km/h
879 27-06-2010 07:46:01 15.6 C 9.31 g/m*3 15.6 C 0 km/h
880 27-06-2010 07:58:01 15.9 C 9.34 g/m*3 15.9 C 0 km/h
881 27-06-2010 08:10:02 16.2 C 9.38 g/m*3 16.2 C 0 km/h
882 27-06-2010 08:22:01 16.6 C 9.32 g/m*3 16.6 C 0 km/h
883 27-06-2010 08:34:01 16.9 C 9.21 g/m*3 16.9 C 0 km/h
884 27-06-2010 08:46:01 17.5 C 9.24 g/m*3 17.5 C 0 km/h
885 27-06-2010 08:58:01 18 C 9.06 g/m*3 18 C 0 km/h
886 27-06-2010 09:10:02 18.6 C 9.23 g/m*3 18.6 C 0 km/h
887 27-06-2010 09:22:02 19.5 C 9.4 g/m*3 19.5 C 0 km/h
888 27-06-2010 09:34:01 20.5 C 9.79 g/m*3 20.5 C 0 km/h
889 27-06-2010 09:46:02 21.3 C 9.32 g/m*3 21.3 C 0 km/h
890 27-06-2010 09:58:02 21.8 C 9.21 g/m*3 21.8 C 0 km/h
891 27-06-2010 10:10:01 22.5 C 9.19 g/m*3 22.5 C 0 km/h
892 27-06-2010 10:22:02 23.7 C 9.41 g/m*3 23.7 C 0 km/h
893 27-06-2010 10:34:01 24.4 C 8.9 g/m*3 24.4 C 0 km/h
894 27-06-2010 10:46:02 24.8 C 8.42 g/m*3 24.8 C 0 km/h
895 27-06-2010 10:58:02 25.4 C 8.48 g/m*3 25.4 C 0 km/h
896 27-06-2010 11:10:02 25.6 C 8.09 g/m*3 25.6 C 0 km/h
897 27-06-2010 11:22:02 26.1 C 7.83 g/m*3 26.1 C 0 km/h
898 27-06-2010 11:34:01 27.3 C 8.11 g/m*3 27.3 C 0 km/h
899 27-06-2010 11:46:02 28 C 7.61 g/m*3 28 C 0 km/h
900 27-06-2010 11:58:02 29.1 C 7.22 g/m*3 29.1 C 0 km/h
Sensor: Nr:Datum:Temp:Abs-Feuchte:Windchill:Wind:
Aussen-T/F 901 27-06-2010 12:10:01 29.8 C 6.6 g/m*3 29.8 C 0 km/h
902 27-06-2010 12:22:01 29.7 C 6.27 g/m*3 29.7 C 0 km/h
903 27-06-2010 12:34:01 30.7 C 6.3 g/m*3 30.7 C 0 km/h
904 27-06-2010 12:46:02 31.3 C 6.5 g/m*3 31.3 C 0 km/h
905 27-06-2010 12:58:02 31.4 C 6.54 g/m*3 31.4 C 0 km/h
906 27-06-2010 13:10:02 31.4 C 6.54 g/m*3 31.4 C 0 km/h
907 27-06-2010 13:22:02 32 C 6.75 g/m*3 32 C 0 km/h
908 27-06-2010 13:34:03 32.4 C 6.9 g/m*3 32.4 C 0 km/h
909 27-06-2010 13:46:02 32.2 C 6.82 g/m*3 32.2 C 0 km/h
910 27-06-2010 13:58:02 31.5 C 6.57 g/m*3 31.5 C 0 km/h
911 27-06-2010 14:10:02 31.4 C 6.54 g/m*3 31.4 C 0 km/h
912 27-06-2010 14:22:01 31.3 C 6.5 g/m*3 31.3 C 0 km/h
913 27-06-2010 14:34:02 31.3 C 6.5 g/m*3 31.3 C 0 km/h
914 27-06-2010 14:46:02 31.3 C 6.5 g/m*3 31.3 C 0 km/h
915 27-06-2010 14:58:02 31.4 C 6.54 g/m*3 31.4 C 0 km/h
916 27-06-2010 15:10:02 32 C 6.75 g/m*3 32 C 0 km/h
917 27-06-2010 15:22:01 32.4 C 6.9 g/m*3 32.4 C 0 km/h
918 27-06-2010 15:34:02 32.5 C 6.93 g/m*3 32.5 C 0 km/h
919 27-06-2010 15:46:02 32.7 C 7.01 g/m*3 32.7 C 0 km/h
920 27-06-2010 15:58:02 32.6 C 6.97 g/m*3 32.6 C 0 km/h
921 27-06-2010 16:10:02 33 C 7.12 g/m*3 33 C 0 km/h
922 27-06-2010 16:22:02 32.8 C 7.04 g/m*3 32.8 C 0 km/h
923 27-06-2010 16:34:02 33.1 C 7.16 g/m*3 33.1 C 0 km/h
924 27-06-2010 16:46:02 33.3 C 7.23 g/m*3 33.3 C 0 km/h
925 27-06-2010 16:58:02 33.3 C 7.23 g/m*3 33.3 C 0 km/h
Sensor: Nr:Datum:Temp:Abs-Feuchte:Windchill:Wind:
Aussen-T/F 926 27-06-2010 17:10:02 33.5 C 7.31 g/m*3 33.5 C 0 km/h
927 27-06-2010 17:22:02 32.8 C 7.04 g/m*3 32.8 C 0 km/h
928 27-06-2010 17:34:02 33.4 C 7.27 g/m*3 33.4 C 0 km/h
929 27-06-2010 17:46:02 33.1 C 7.16 g/m*3 33.1 C 0 km/h
930 27-06-2010 17:58:02 33.5 C 7.31 g/m*3 33.5 C 0 km/h
931 27-06-2010 18:10:02 33.6 C 7.35 g/m*3 33.6 C 0 km/h
932 27-06-2010 18:22:02 33.8 C 7.43 g/m*3 33.8 C 0 km/h
933 27-06-2010 18:34:02 33.6 C 7.35 g/m*3 33.6 C 0 km/h
934 27-06-2010 18:46:02 33.7 C 7.39 g/m*3 33.7 C 0 km/h
935 27-06-2010 18:58:02 33.9 C 7.46 g/m*3 33.9 C 0 km/h
936 27-06-2010 19:10:02 33.8 C 7.43 g/m*3 33.8 C 0 km/h
937 27-06-2010 19:22:02 33.5 C 7.31 g/m*3 33.5 C 0 km/h
938 27-06-2010 19:34:02 33.4 C 7.27 g/m*3 33.4 C 0 km/h
939 27-06-2010 19:46:02 33.3 C 7.23 g/m*3 33.3 C 0 km/h
940 27-06-2010 19:58:02 32.9 C 7.08 g/m*3 32.9 C 0 km/h
941 27-06-2010 20:10:02 32.6 C 6.97 g/m*3 32.6 C 0 km/h
942 27-06-2010 20:22:02 31.9 C 6.72 g/m*3 31.9 C 0 km/h
943 27-06-2010 20:34:02 31.5 C 6.57 g/m*3 31.5 C 0 km/h
944 27-06-2010 20:46:02 31 C 6.4 g/m*3 31 C 0 km/h
945 27-06-2010 20:58:02 30.3 C 6.47 g/m*3 30.3 C 0 km/h
946 27-06-2010 21:10:02 29.2 C 6.97 g/m*3 29.2 C 0 km/h
947 27-06-2010 21:22:02 27.6 C 7.18 g/m*3 27.6 C 0 km/h
948 27-06-2010 21:34:02 26.6 C 7.05 g/m*3 26.6 C 0 km/h
949 27-06-2010 21:46:01 25.9 C 7.51 g/m*3 25.9 C 0 km/h
950 27-06-2010 21:58:01 25.3 C 7.26 g/m*3 25.3 C 0 km/h
Sensor: Nr:Datum:Temp:Abs-Feuchte:Windchill:Wind:
Aussen-T/F 951 27-06-2010 22:10:01 24.8 C 7.28 g/m*3 24.8 C 0 km/h
952 27-06-2010 22:22:01 24.3 C 7.3 g/m*3 24.3 C 0 km/h
953 27-06-2010 22:34:02 24.3 C 7.52 g/m*3 24.3 C 0 km/h
954 27-06-2010 22:46:02 23.9 C 7.57 g/m*3 23.9 C 0 km/h
955 27-06-2010 22:58:02 23.7 C 7.7 g/m*3 23.7 C 0 km/h
956 27-06-2010 23:11:02 23.5 C 8.04 g/m*3 23.5 C 0 km/h
957 27-06-2010 23:23:02 23 C 7.6 g/m*3 23 C 0 km/h
958 27-06-2010 23:35:02 22.5 C 7.99 g/m*3 22.5 C 0 km/h
959 27-06-2010 23:47:02 22.3 C 8.1 g/m*3 22.3 C 0 km/h
960 27-06-2010 23:59:02 22 C 7.96 g/m*3 22 C 0 km/h
961 28-06-2010 00:11:02 21.6 C 8.35 g/m*3 21.6 C 0 km/h
962 28-06-2010 00:23:02 21.3 C 8.2 g/m*3 21.3 C 0 km/h
963 28-06-2010 00:35:03 21 C 8.06 g/m*3 21 C 0 km/h
964 28-06-2010 00:47:03 20.8 C 8.15 g/m*3 20.8 C 0 km/h
965 28-06-2010 00:59:03 20.3 C 8.27 g/m*3 20.3 C 0 km/h
966 28-06-2010 01:11:03 20 C 7.95 g/m*3 20 C 0 km/h
967 28-06-2010 01:23:03 20 C 8.3 g/m*3 20 C 0 km/h
968 28-06-2010 01:35:03 19.9 C 8.25 g/m*3 19.9 C 0 km/h
969 28-06-2010 01:47:03 19.6 C 8.1 g/m*3 19.6 C 0 km/h
970 28-06-2010 01:59:03 19.4 C 8.34 g/m*3 19.4 C 0 km/h
971 28-06-2010 02:11:03 18.9 C 8.59 g/m*3 18.9 C 0 km/h
972 28-06-2010 02:23:03 18.9 C 8.59 g/m*3 18.9 C 0 km/h
973 28-06-2010 02:35:03 18.8 C 8.7 g/m*3 18.8 C 0 km/h
974 28-06-2010 02:47:03 18.5 C 8.7 g/m*3 18.5 C 0 km/h
975 28-06-2010 02:59:03 18.4 C 8.65 g/m*3 18.4 C 0 km/h
Sensor: Nr:Datum:Temp:Abs-Feuchte:Windchill:Wind:
Aussen-T/F 976 28-06-2010 03:11:03 18.1 C 8.65 g/m*3 18.1 C 0 km/h
977 28-06-2010 03:23:03 17.9 C 8.7 g/m*3 17.9 C 0 km/h
978 28-06-2010 03:35:03 17.8 C 8.8 g/m*3 17.8 C 0 km/h
979 28-06-2010 03:47:03 17.6 C 8.85 g/m*3 17.6 C 0 km/h
980 28-06-2010 03:59:03 17.5 C 8.8 g/m*3 17.5 C 0 km/h
981 28-06-2010 04:11:03 17.1 C 8.88 g/m*3 17.1 C 0 km/h
982 28-06-2010 04:23:03 17 C 8.97 g/m*3 17 C 0 km/h
983 28-06-2010 04:35:04 16.8 C 9.01 g/m*3 16.8 C 0 km/h
984 28-06-2010 04:47:04 16.6 C 9.18 g/m*3 16.6 C 0 km/h
985 28-06-2010 04:59:04 16.4 C 9.07 g/m*3 16.4 C 0 km/h
986 28-06-2010 05:11:04 16.3 C 9.16 g/m*3 16.3 C 0 km/h
987 28-06-2010 05:23:04 16 C 9.26 g/m*3 16 C 0 km/h
988 28-06-2010 05:35:04 16 C 9.26 g/m*3 16 C 0 km/h
989 28-06-2010 05:47:04 16 C 9.13 g/m*3 16 C 0 km/h
990 28-06-2010 05:59:04 16.2 C 9.24 g/m*3 16.2 C 0 km/h
991 28-06-2010 06:11:04 16.2 C 9.38 g/m*3 16.2 C 0 km/h
992 28-06-2010 06:23:04 16.4 C 9.49 g/m*3 16.4 C 0 km/h
993 28-06-2010 06:35:04 16.5 C 9.41 g/m*3 16.5 C 0 km/h
994 28-06-2010 06:47:04 16.6 C 9.61 g/m*3 16.6 C 0 km/h
995 28-06-2010 06:59:04 16.4 C 9.49 g/m*3 16.4 C 0 km/h
996 28-06-2010 07:11:02 16.2 C 9.52 g/m*3 16.2 C 0 km/h
997 28-06-2010 07:23:02 16.4 C 9.63 g/m*3 16.4 C 0 km/h
998 28-06-2010 07:35:02 16.8 C 9.87 g/m*3 16.8 C 0 km/h
999 28-06-2010 07:47:03 17.4 C 9.78 g/m*3 17.4 C 0 km/h
1000 28-06-2010 07:59:03 17.2 C 9.67 g/m*3 17.2 C 0 km/h
Sensor: Nr:Datum:Temp:Abs-Feuchte:Windchill:Wind:
Aussen-T/F 1001 28-06-2010 08:11:02 17.5 C 9.69 g/m*3 17.5 C 0 km/h
1002 28-06-2010 08:23:02 17.9 C 9.77 g/m*3 17.9 C 0 km/h
1003 28-06-2010 08:35:02 18.1 C 9.58 g/m*3 18.1 C 0 km/h
1004 28-06-2010 08:47:02 18.5 C 9.49 g/m*3 18.5 C 0 km/h
1005 28-06-2010 08:59:02 19 C 9.45 g/m*3 19 C 0 km/h
1006 28-06-2010 09:11:02 19.7 C 9.51 g/m*3 19.7 C 0 km/h
1007 28-06-2010 09:23:02 20.4 C 9.73 g/m*3 20.4 C 0 km/h
1008 28-06-2010 09:35:01 21.1 C 9.58 g/m*3 21.1 C 0 km/h
1009 28-06-2010 09:47:02 22.1 C 9.76 g/m*3 22.1 C 0 km/h
1010 28-06-2010 09:59:02 22.9 C 9.81 g/m*3 22.9 C 0 km/h
1011 28-06-2010 10:11:01 23.7 C 9.84 g/m*3 23.7 C 0 km/h
1012 28-06-2010 10:23:01 24.1 C 9.19 g/m*3 24.1 C 0 km/h
1013 28-06-2010 10:35:02 25.5 C 9.71 g/m*3 25.5 C 0 km/h
1014 28-06-2010 10:47:01 26.3 C 9.41 g/m*3 26.3 C 0 km/h
1015 28-06-2010 10:59:01 26.7 C 10.12 g/m*3 26.7 C 0 km/h
1016 28-06-2010 11:11:02 27.5 C 9.52 g/m*3 27.5 C 0 km/h
1017 28-06-2010 11:23:02 28 C 10.06 g/m*3 28 C 0 km/h
1018 28-06-2010 11:35:01 29 C 8.62 g/m*3 29 C 0 km/h
1019 28-06-2010 11:47:02 29.8 C 8.1 g/m*3 29.8 C 0 km/h
1020 28-06-2010 11:59:02 30.5 C 7.79 g/m*3 30.5 C 0 km/h
1021 28-06-2010 12:11:01 30.9 C 7.64 g/m*3 30.9 C 0 km/h
1022 28-06-2010 12:23:02 31.4 C 7.19 g/m*3 31.4 C 0 km/h
1023 28-06-2010 12:35:01 31.7 C 6.64 g/m*3 31.7 C 0 km/h
1024 28-06-2010 12:47:03 32.1 C 6.79 g/m*3 32.1 C 0 km/h
1025 28-06-2010 12:59:03 32.4 C 6.9 g/m*3 32.4 C 0 km/h
Sensor: Nr:Datum:Temp:Abs-Feuchte:Windchill:Wind:
Aussen-T/F 1026 28-06-2010 13:11:02 32.6 C 6.97 g/m*3 32.6 C 0 km/h
1027 28-06-2010 13:23:03 33 C 7.12 g/m*3 33 C 0 km/h
1028 28-06-2010 13:35:03 33.2 C 7.2 g/m*3 33.2 C 0 km/h
1029 28-06-2010 13:47:02 33.3 C 7.23 g/m*3 33.3 C 0 km/h
1030 28-06-2010 13:59:03 33.3 C 7.23 g/m*3 33.3 C 0 km/h
1031 28-06-2010 14:11:02 32.6 C 6.97 g/m*3 32.6 C 0 km/h
1032 28-06-2010 14:23:02 32.5 C 6.93 g/m*3 32.5 C 0 km/h
1033 28-06-2010 14:35:03 32.1 C 6.79 g/m*3 32.1 C 0 km/h
1034 28-06-2010 14:47:02 32.5 C 6.93 g/m*3 32.5 C 0 km/h
1035 28-06-2010 14:59:02 32.9 C 7.08 g/m*3 32.9 C 0 km/h
1036 28-06-2010 15:11:02 33.4 C 7.27 g/m*3 33.4 C 0 km/h
1037 28-06-2010 15:23:02 32.1 C 6.79 g/m*3 32.1 C 0 km/h
1038 28-06-2010 15:35:02 31.9 C 6.72 g/m*3 31.9 C 0 km/h
1039 28-06-2010 15:47:01 32.4 C 6.9 g/m*3 32.4 C 0 km/h
1040 28-06-2010 15:59:01 32.3 C 6.86 g/m*3 32.3 C 0 km/h
1041 28-06-2010 16:11:02 32.4 C 6.9 g/m*3 32.4 C 0 km/h
1042 28-06-2010 16:23:01 32.7 C 7.01 g/m*3 32.7 C 0 km/h
1043 28-06-2010 16:35:02 33.2 C 7.2 g/m*3 33.2 C 0 km/h
1044 28-06-2010 16:47:01 32.1 C 6.79 g/m*3 32.1 C 0 km/h
1045 28-06-2010 16:59:01 33.3 C 7.23 g/m*3 33.3 C 0 km/h
1046 28-06-2010 17:11:02 33.6 C 7.35 g/m*3 33.6 C 0 km/h
1047 28-06-2010 17:23:01 34.2 C 7.58 g/m*3 34.2 C 0 km/h
1048 28-06-2010 17:35:02 32.5 C 6.93 g/m*3 32.5 C 0 km/h
1049 28-06-2010 17:47:01 32.7 C 7.01 g/m*3 32.7 C 0 km/h
1050 28-06-2010 17:59:01 32.9 C 7.08 g/m*3 32.9 C 0 km/h
Sensor: Nr:Datum:Temp:Abs-Feuchte:Windchill:Wind:
Aussen-T/F 1051 28-06-2010 18:11:02 33.3 C 7.23 g/m*3 33.3 C 0 km/h
1052 28-06-2010 18:23:02 33 C 7.12 g/m*3 33 C 0 km/h
1053 28-06-2010 18:35:02 32.7 C 7.01 g/m*3 32.7 C 0 km/h
1054 28-06-2010 18:47:02 32.6 C 6.97 g/m*3 32.6 C 0 km/h
1055 28-06-2010 18:59:02 32.4 C 6.9 g/m*3 32.4 C 0 km/h
1056 28-06-2010 19:11:02 31.6 C 6.61 g/m*3 31.6 C 0 km/h
1057 28-06-2010 19:23:02 31.7 C 6.64 g/m*3 31.7 C 0 km/h
1058 28-06-2010 19:35:01 31.9 C 6.72 g/m*3 31.9 C 0 km/h
1059 28-06-2010 19:47:02 31.5 C 6.57 g/m*3 31.5 C 0 km/h
1060 28-06-2010 19:59:02 31.3 C 6.5 g/m*3 31.3 C 0 km/h
1061 28-06-2010 20:11:01 31.2 C 6.47 g/m*3 31.2 C 0 km/h
1062 28-06-2010 20:23:02 31 C 6.72 g/m*3 31 C 0 km/h
1063 28-06-2010 20:35:01 30.6 C 7.2 g/m*3 30.6 C 0 km/h
1064 28-06-2010 20:47:02 30.1 C 7.01 g/m*3 30.1 C 0 km/h
1065 28-06-2010 20:59:02 29.5 C 6.79 g/m*3 29.5 C 0 km/h
1066 28-06-2010 21:11:01 28.9 C 7.14 g/m*3 28.9 C 0 km/h
1067 28-06-2010 21:23:01 28.2 C 7.15 g/m*3 28.2 C 0 km/h
1068 28-06-2010 21:35:02 27.5 C 7.14 g/m*3 27.5 C 0 km/h
1069 28-06-2010 21:47:02 27 C 7.21 g/m*3 27 C 0 km/h
1070 28-06-2010 21:59:02 26.6 C 7.3 g/m*3 26.6 C 0 km/h
1071 28-06-2010 22:11:02 26.5 C 7.26 g/m*3 26.5 C 0 km/h
1072 28-06-2010 22:24:04 26.3 C 7.43 g/m*3 26.3 C 0 km/h
1073 28-06-2010 22:36:04 26 C 7.55 g/m*3 26 C 0 km/h
1074 28-06-2010 22:48:05 25.8 C 7.94 g/m*3 25.8 C 0 km/h
1075 28-06-2010 23:00:05 25.4 C 8 g/m*3 25.4 C 0 km/h
Sensor: Nr:Datum:Temp:Abs-Feuchte:Windchill:Wind:
Aussen-T/F 1076 28-06-2010 23:12:05 25.3 C 8.19 g/m*3 25.3 C 0 km/h
1077 28-06-2010 23:24:05 25.1 C 8.33 g/m*3 25.1 C 0 km/h
1078 28-06-2010 23:36:05 24.7 C 8.37 g/m*3 24.7 C 0 km/h
1079 28-06-2010 23:48:05 24.4 C 8.46 g/m*3 24.4 C 0 km/h
1080 29-06-2010 00:00:05 24.1 C 8.75 g/m*3 24.1 C 0 km/h
1081 29-06-2010 00:12:05 23.7 C 8.56 g/m*3 23.7 C 0 km/h
1082 29-06-2010 00:24:05 23.7 C 8.98 g/m*3 23.7 C 0 km/h
1083 29-06-2010 00:36:05 23.3 C 8.57 g/m*3 23.3 C 0 km/h
1084 29-06-2010 00:48:05 23 C 8.84 g/m*3 23 C 0 km/h
1085 29-06-2010 01:00:05 22.7 C 9.09 g/m*3 22.7 C 0 km/h
1086 29-06-2010 01:12:05 22.5 C 8.99 g/m*3 22.5 C 0 km/h
1087 29-06-2010 01:24:05 22.4 C 8.94 g/m*3 22.4 C 0 km/h
1088 29-06-2010 01:36:05 21.8 C 9.02 g/m*3 21.8 C 0 km/h
1089 29-06-2010 01:48:05 21.5 C 9.05 g/m*3 21.5 C 0 km/h
1090 29-06-2010 02:00:05 21.3 C 9.32 g/m*3 21.3 C 0 km/h
1091 29-06-2010 02:12:05 21.1 C 9.21 g/m*3 21.1 C 0 km/h
1092 29-06-2010 02:24:05 21.1 C 9.21 g/m*3 21.1 C 0 km/h
1093 29-06-2010 02:36:05 21 C 9.34 g/m*3 21 C 0 km/h
1094 29-06-2010 02:48:05 21.1 C 9.4 g/m*3 21.1 C 0 km/h
1095 29-06-2010 03:00:06 21.2 C 9.45 g/m*3 21.2 C 0 km/h
1096 29-06-2010 03:12:06 20.8 C 9.6 g/m*3 20.8 C 0 km/h
1097 29-06-2010 03:24:06 20.6 C 9.49 g/m*3 20.6 C 0 km/h
1098 29-06-2010 03:36:06 20.3 C 9.5 g/m*3 20.3 C 0 km/h
1099 29-06-2010 03:48:06 20 C 9.51 g/m*3 20 C 0 km/h
1100 29-06-2010 04:00:06 20 C 9.51 g/m*3 20 C 0 km/h
Sensor: Nr:Datum:Temp:Abs-Feuchte:Windchill:Wind:
Aussen-T/F 1101 29-06-2010 04:12:06 19.7 C 9.68 g/m*3 19.7 C 0 km/h
1102 29-06-2010 04:24:06 19.4 C 9.84 g/m*3 19.4 C 0 km/h
1103 29-06-2010 04:36:06 19.3 C 9.79 g/m*3 19.3 C 0 km/h
1104 29-06-2010 04:48:06 19.2 C 9.89 g/m*3 19.2 C 0 km/h
1105 29-06-2010 05:00:06 19 C 9.94 g/m*3 19 C 0 km/h
1106 29-06-2010 05:12:06 18.9 C 10.21 g/m*3 18.9 C 0 km/h
1107 29-06-2010 05:24:06 18.7 C 10.25 g/m*3 18.7 C 0 km/h
1108 29-06-2010 05:36:06 18.5 C 10.28 g/m*3 18.5 C 0 km/h
1109 29-06-2010 05:48:06 18.4 C 10.38 g/m*3 18.4 C 0 km/h
1110 29-06-2010 06:00:06 18.3 C 10.32 g/m*3 18.3 C 0 km/h
1111 29-06-2010 06:12:06 18.3 C 10.48 g/m*3 18.3 C 0 km/h
1112 29-06-2010 06:24:04 18.3 C 10.32 g/m*3 18.3 C 0 km/h
1113 29-06-2010 06:36:04 18.4 C 10.54 g/m*3 18.4 C 0 km/h
1114 29-06-2010 06:48:02 18.5 C 10.6 g/m*3 18.5 C 0 km/h
1115 29-06-2010 07:00:02 18.5 C 10.6 g/m*3 18.5 C 0 km/h
1116 29-06-2010 07:12:02 18.7 C 10.73 g/m*3 18.7 C 0 km/h
1117 29-06-2010 07:24:02 18.9 C 10.69 g/m*3 18.9 C 0 km/h
1118 29-06-2010 07:36:01 19.1 C 10.49 g/m*3 19.1 C 0 km/h
1119 29-06-2010 07:48:02 19.2 C 10.72 g/m*3 19.2 C 0 km/h
1120 29-06-2010 08:00:02 19.3 C 10.62 g/m*3 19.3 C 0 km/h
1121 29-06-2010 08:12:01 19.6 C 10.8 g/m*3 19.6 C 0 km/h
1122 29-06-2010 08:24:01 19.9 C 10.82 g/m*3 19.9 C 0 km/h
1123 29-06-2010 08:36:02 20.4 C 10.26 g/m*3 20.4 C 0 km/h
1124 29-06-2010 08:48:02 20.9 C 10.02 g/m*3 20.9 C 0 km/h
1125 29-06-2010 09:00:02 21.4 C 10.12 g/m*3 21.4 C 0 km/h
Sensor: Nr:Datum:Temp:Abs-Feuchte:Windchill:Wind:
Aussen-T/F 1126 29-06-2010 09:12:02 21.9 C 10.23 g/m*3 21.9 C 0 km/h
1127 29-06-2010 09:24:02 22.5 C 9.99 g/m*3 22.5 C 0 km/h
1128 29-06-2010 09:36:02 23.2 C 9.98 g/m*3 23.2 C 0 km/h
1129 29-06-2010 09:48:01 24.1 C 10.06 g/m*3 24.1 C 0 km/h
1130 29-06-2010 10:00:01 24.5 C 9.85 g/m*3 24.5 C 0 km/h
1131 29-06-2010 10:12:02 25 C 9.67 g/m*3 25 C 0 km/h
1132 29-06-2010 10:24:01 25.9 C 9.93 g/m*3 25.9 C 0 km/h
1133 29-06-2010 10:36:01 26.5 C 9.51 g/m*3 26.5 C 0 km/h
1134 29-06-2010 10:48:01 27.3 C 9.94 g/m*3 27.3 C 0 km/h
1135 29-06-2010 11:00:01 27.4 C 9.74 g/m*3 27.4 C 0 km/h
1136 29-06-2010 11:12:02 28.2 C 9.9 g/m*3 28.2 C 0 km/h
1137 29-06-2010 11:24:01 28.3 C 9.4 g/m*3 28.3 C 0 km/h
1138 29-06-2010 11:36:02 28.8 C 9.09 g/m*3 28.8 C 0 km/h
1139 29-06-2010 11:48:01 29.8 C 9.9 g/m*3 29.8 C 0 km/h
1140 29-06-2010 12:00:01 30.4 C 8.99 g/m*3 30.4 C 0 km/h
1141 29-06-2010 12:12:02 31 C 8.64 g/m*3 31 C 0 km/h
1142 29-06-2010 12:24:02 31.5 C 7.89 g/m*3 31.5 C 0 km/h
1143 29-06-2010 12:36:01 31.9 C 7.39 g/m*3 31.9 C 0 km/h
1144 29-06-2010 12:48:01 32.4 C 6.9 g/m*3 32.4 C 0 km/h
1145 29-06-2010 13:00:01 31.9 C 6.72 g/m*3 31.9 C 0 km/h
1146 29-06-2010 13:12:02 32.5 C 6.93 g/m*3 32.5 C 0 km/h
1147 29-06-2010 13:24:02 33.1 C 7.16 g/m*3 33.1 C 0 km/h
1148 29-06-2010 13:36:01 33.4 C 7.27 g/m*3 33.4 C 0 km/h
1149 29-06-2010 13:48:02 32.3 C 6.86 g/m*3 32.3 C 0 km/h
1150 29-06-2010 14:00:02 32.8 C 7.04 g/m*3 32.8 C 0 km/h
Sensor: Nr:Datum:Temp:Abs-Feuchte:Windchill:Wind:
Aussen-T/F 1151 29-06-2010 14:12:01 31.4 C 6.54 g/m*3 31.4 C 0 km/h
1152 29-06-2010 14:24:02 31.4 C 6.54 g/m*3 31.4 C 0 km/h
1153 29-06-2010 14:36:01 31.2 C 6.47 g/m*3 31.2 C 0 km/h
1154 29-06-2010 14:48:02 30.9 C 6.68 g/m*3 30.9 C 0 km/h
1155 29-06-2010 15:00:02 30.6 C 7.2 g/m*3 30.6 C 0 km/h
1156 29-06-2010 15:12:02 29.5 C 7.38 g/m*3 29.5 C 0 km/h
1157 29-06-2010 15:24:02 28.7 C 8.19 g/m*3 28.7 C 0 km/h
1158 29-06-2010 15:36:02 27.6 C 8.25 g/m*3 27.6 C 0 km/h
1159 29-06-2010 15:48:02 26.6 C 8.56 g/m*3 26.6 C 0 km/h
1160 29-06-2010 16:00:03 26.4 C 8.96 g/m*3 26.4 C 0 km/h
1161 29-06-2010 16:12:01 26.1 C 11.26 g/m*3 26.1 C 0 km/h
1162 29-06-2010 16:24:02 25.1 C 12.96 g/m*3 25.1 C 0 km/h
1163 29-06-2010 16:36:02 27.9 C 11.36 g/m*3 27.9 C 0 km/h
1164 29-06-2010 16:48:01 29.8 C 10.2 g/m*3 29.8 C 0 km/h
1165 29-06-2010 17:00:01 29.7 C 10.14 g/m*3 29.7 C 0 km/h
1166 29-06-2010 17:12:02 29.1 C 10.11 g/m*3 29.1 C 0 km/h
1167 29-06-2010 17:24:01 29 C 9.77 g/m*3 29 C 0 km/h
1168 29-06-2010 17:36:02 29.5 C 9.74 g/m*3 29.5 C 0 km/h
1169 29-06-2010 17:48:02 30.4 C 8.99 g/m*3 30.4 C 0 km/h
1170 29-06-2010 18:00:02 29.9 C 8.45 g/m*3 29.9 C 0 km/h
1171 29-06-2010 18:12:02 28.6 C 8.43 g/m*3 28.6 C 0 km/h
1172 29-06-2010 18:24:01 28.9 C 8.86 g/m*3 28.9 C 0 km/h
1173 29-06-2010 18:36:02 29.3 C 8.76 g/m*3 29.3 C 0 km/h
1174 29-06-2010 18:48:02 28.8 C 8.52 g/m*3 28.8 C 0 km/h
1175 29-06-2010 19:00:02 28.8 C 8.81 g/m*3 28.8 C 0 km/h
Sensor: Nr:Datum:Temp:Abs-Feuchte:Windchill:Wind:
Aussen-T/F 1176 29-06-2010 19:12:02 29.4 C 8.81 g/m*3 29.4 C 0 km/h
1177 29-06-2010 19:24:01 29.5 C 8.56 g/m*3 29.5 C 0 km/h
1178 29-06-2010 19:36:02 28.8 C 8.52 g/m*3 28.8 C 0 km/h
1179 29-06-2010 19:48:02 28.3 C 8.29 g/m*3 28.3 C 0 km/h
1180 29-06-2010 20:00:02 27.5 C 8.47 g/m*3 27.5 C 0 km/h
1181 29-06-2010 20:12:02 27.7 C 8.56 g/m*3 27.7 C 0 km/h
1182 29-06-2010 20:24:02 28 C 8.43 g/m*3 28 C 0 km/h
1183 29-06-2010 20:36:02 27.7 C 8.56 g/m*3 27.7 C 0 km/h
1184 29-06-2010 20:48:01 27.5 C 9 g/m*3 27.5 C 0 km/h
1185 29-06-2010 21:00:01 27.2 C 9.11 g/m*3 27.2 C 0 km/h
1186 29-06-2010 21:12:02 26.1 C 9.3 g/m*3 26.1 C 0 km/h
1187 29-06-2010 21:24:02 25.3 C 9.36 g/m*3 25.3 C 0 km/h
1188 29-06-2010 21:36:02 24.5 C 9.62 g/m*3 24.5 C 0 km/h
1189 29-06-2010 21:48:02 23.8 C 9.9 g/m*3 23.8 C 0 km/h
1190 29-06-2010 22:00:02 23.4 C 9.88 g/m*3 23.4 C 0 km/h
1191 29-06-2010 22:12:01 23.3 C 9.83 g/m*3 23.3 C 0 km/h
1192 29-06-2010 22:24:01 23.1 C 9.72 g/m*3 23.1 C 0 km/h
1193 29-06-2010 22:37:02 22.7 C 9.9 g/m*3 22.7 C 0 km/h
1194 29-06-2010 22:49:02 22.5 C 9.99 g/m*3 22.5 C 0 km/h
1195 29-06-2010 23:01:02 22.4 C 10.13 g/m*3 22.4 C 0 km/h
1196 29-06-2010 23:13:02 22.1 C 9.96 g/m*3 22.1 C 0 km/h
1197 29-06-2010 23:25:02 21.9 C 10.23 g/m*3 21.9 C 0 km/h
1198 29-06-2010 23:37:02 21.6 C 10.43 g/m*3 21.6 C 0 km/h
1199 29-06-2010 23:49:02 21.3 C 10.25 g/m*3 21.3 C 0 km/h
1200 30-06-2010 00:01:02 21.1 C 10.32 g/m*3 21.1 C 0 km/h
Sensor: Nr:Datum:Temp:Abs-Feuchte:Windchill:Wind:
Aussen-T/F 1201 30-06-2010 00:13:02 20.9 C 10.38 g/m*3 20.9 C 0 km/h
1202 30-06-2010 00:25:03 20.6 C 10.56 g/m*3 20.6 C 0 km/h
1203 30-06-2010 00:37:03 20.3 C 10.55 g/m*3 20.3 C 0 km/h
1204 30-06-2010 00:49:03 20.1 C 10.6 g/m*3 20.1 C 0 km/h
1205 30-06-2010 01:01:03 19.9 C 10.82 g/m*3 19.9 C 0 km/h
1206 30-06-2010 01:13:03 19.7 C 10.87 g/m*3 19.7 C 0 km/h
1207 30-06-2010 01:25:03 19.5 C 10.91 g/m*3 19.5 C 0 km/h
1208 30-06-2010 01:37:03 19.3 C 10.78 g/m*3 19.3 C 0 km/h
1209 30-06-2010 01:49:03 19.1 C 10.66 g/m*3 19.1 C 0 km/h
1210 30-06-2010 02:01:03 18.9 C 10.85 g/m*3 18.9 C 0 km/h
1211 30-06-2010 02:13:03 18.7 C 10.89 g/m*3 18.7 C 0 km/h
1212 30-06-2010 02:25:03 18.5 C 10.92 g/m*3 18.5 C 0 km/h
1213 30-06-2010 02:37:03 18.4 C 11.01 g/m*3 18.4 C 0 km/h
1214 30-06-2010 02:49:03 18.2 C 11.04 g/m*3 18.2 C 0 km/h
1215 30-06-2010 03:01:03 18.1 C 10.97 g/m*3 18.1 C 0 km/h
1216 30-06-2010 03:13:03 17.9 C 11.15 g/m*3 17.9 C 0 km/h
1217 30-06-2010 03:25:03 17.7 C 11.16 g/m*3 17.7 C 0 km/h
1218 30-06-2010 03:37:03 17.6 C 11.1 g/m*3 17.6 C 0 km/h
1219 30-06-2010 03:49:03 17.5 C 11.18 g/m*3 17.5 C 0 km/h
1220 30-06-2010 04:01:03 17.2 C 11.13 g/m*3 17.2 C 0 km/h
1221 30-06-2010 04:13:03 17.1 C 10.92 g/m*3 17.1 C 0 km/h
1222 30-06-2010 04:25:03 17 C 11 g/m*3 17 C 0 km/h
1223 30-06-2010 04:37:03 16.8 C 11.01 g/m*3 16.8 C 0 km/h
1224 30-06-2010 04:49:04 16.7 C 11.08 g/m*3 16.7 C 0 km/h
1225 30-06-2010 05:01:04 16.5 C 11.09 g/m*3 16.5 C 0 km/h
Sensor: Nr:Datum:Temp:Abs-Feuchte:Windchill:Wind:
Aussen-T/F 1226 30-06-2010 05:13:04 16.3 C 10.96 g/m*3 16.3 C 0 km/h
1227 30-06-2010 05:25:04 16.3 C 10.96 g/m*3 16.3 C 0 km/h
1228 30-06-2010 05:37:04 16.3 C 10.96 g/m*3 16.3 C 0 km/h
1229 30-06-2010 05:49:04 16.2 C 10.76 g/m*3 16.2 C 0 km/h
1230 30-06-2010 06:01:04 16.1 C 10.83 g/m*3 16.1 C 0 km/h
1231 30-06-2010 06:13:04 16.1 C 10.83 g/m*3 16.1 C 0 km/h
1232 30-06-2010 06:25:04 16.1 C 10.69 g/m*3 16.1 C 0 km/h
1233 30-06-2010 06:37:04 16.2 C 10.76 g/m*3 16.2 C 0 km/h
1234 30-06-2010 06:49:03 16.4 C 10.89 g/m*3 16.4 C 0 km/h
1235 30-06-2010 07:01:02 16.8 C 11.01 g/m*3 16.8 C 0 km/h
1236 30-06-2010 07:13:02 17.2 C 10.84 g/m*3 17.2 C 0 km/h
1237 30-06-2010 07:25:03 17.3 C 10.61 g/m*3 17.3 C 0 km/h
1238 30-06-2010 07:37:02 17.5 C 10.73 g/m*3 17.5 C 0 km/h
1239 30-06-2010 07:49:01 17.8 C 10.62 g/m*3 17.8 C 0 km/h
1240 30-06-2010 08:01:02 17.9 C 10.54 g/m*3 17.9 C 0 km/h
1241 30-06-2010 08:13:02 17.9 C 10.99 g/m*3 17.9 C 0 km/h
1242 30-06-2010 08:25:02 18.1 C 11.12 g/m*3 18.1 C 0 km/h
1243 30-06-2010 08:37:02 18.5 C 11.08 g/m*3 18.5 C 0 km/h
1244 30-06-2010 08:49:02 19 C 10.92 g/m*3 19 C 0 km/h
1245 30-06-2010 09:01:01 19.4 C 11.01 g/m*3 19.4 C 0 km/h
1246 30-06-2010 09:13:01 20 C 10.37 g/m*3 20 C 0 km/h
1247 30-06-2010 09:25:02 20.3 C 9.67 g/m*3 20.3 C 0 km/h
1248 30-06-2010 09:37:01 21.2 C 9.08 g/m*3 21.2 C 0 km/h
1249 30-06-2010 09:49:02 21.6 C 9.29 g/m*3 21.6 C 0 km/h
1250 30-06-2010 10:01:02 22.4 C 9.33 g/m*3 22.4 C 0 km/h
Sensor: Nr:Datum:Temp:Abs-Feuchte:Windchill:Wind:
Aussen-T/F 1251 30-06-2010 10:13:02 23 C 9.45 g/m*3 23 C 0 km/h
1252 30-06-2010 10:25:02 23.7 C 9.63 g/m*3 23.7 C 0 km/h
1253 30-06-2010 10:37:02 24.1 C 9.41 g/m*3 24.1 C 0 km/h
1254 30-06-2010 10:49:02 24.8 C 8.65 g/m*3 24.8 C 0 km/h
1255 30-06-2010 11:01:02 25.7 C 8.62 g/m*3 25.7 C 0 km/h
1256 30-06-2010 11:13:02 26.1 C 8.57 g/m*3 26.1 C 0 km/h
1257 30-06-2010 11:25:01 26.6 C 8.31 g/m*3 26.6 C 0 km/h
1258 30-06-2010 11:37:02 27.8 C 8.88 g/m*3 27.8 C 0 km/h
1259 30-06-2010 11:49:02 28.3 C 8.02 g/m*3 28.3 C 0 km/h
1260 30-06-2010 12:01:02 27.8 C 6.72 g/m*3 27.8 C 0 km/h
1261 30-06-2010 12:13:02 28 C 6.53 g/m*3 28 C 0 km/h
1262 30-06-2010 12:25:02 29.4 C 6.75 g/m*3 29.4 C 0 km/h
1263 30-06-2010 12:37:02 30.3 C 6.47 g/m*3 30.3 C 0 km/h
1264 30-06-2010 12:49:02 30.7 C 6.3 g/m*3 30.7 C 0 km/h
1265 30-06-2010 13:01:02 30.8 C 6.33 g/m*3 30.8 C 0 km/h
1266 30-06-2010 13:13:02 31.5 C 6.57 g/m*3 31.5 C 0 km/h
1267 30-06-2010 13:25:02 32 C 6.75 g/m*3 32 C 0 km/h
1268 30-06-2010 13:37:02 32.4 C 6.9 g/m*3 32.4 C 0 km/h
1269 30-06-2010 13:49:02 32.5 C 6.93 g/m*3 32.5 C 0 km/h
1270 30-06-2010 14:01:02 32.1 C 6.79 g/m*3 32.1 C 0 km/h
1271 30-06-2010 14:13:02 31.4 C 6.54 g/m*3 31.4 C 0 km/h
1272 30-06-2010 14:25:02 31.5 C 6.57 g/m*3 31.5 C 0 km/h
1273 30-06-2010 14:37:02 32.1 C 6.79 g/m*3 32.1 C 0 km/h
1274 30-06-2010 14:49:02 31.8 C 6.68 g/m*3 31.8 C 0 km/h
1275 30-06-2010 15:01:02 32 C 6.75 g/m*3 32 C 0 km/h
Sensor: Nr:Datum:Temp:Abs-Feuchte:Windchill:Wind:
Aussen-T/F 1276 30-06-2010 15:13:02 32.5 C 6.93 g/m*3 32.5 C 0 km/h
1277 30-06-2010 15:25:03 32.4 C 6.9 g/m*3 32.4 C 0 km/h
1278 30-06-2010 15:37:02 32.5 C 6.93 g/m*3 32.5 C 0 km/h
1279 30-06-2010 15:49:03 32.3 C 6.86 g/m*3 32.3 C 0 km/h
1280 30-06-2010 16:01:02 32.1 C 6.79 g/m*3 32.1 C 0 km/h
1281 30-06-2010 16:13:02 31.7 C 6.64 g/m*3 31.7 C 0 km/h
1282 30-06-2010 16:25:02 32.5 C 6.93 g/m*3 32.5 C 0 km/h
1283 30-06-2010 16:37:02 33 C 7.12 g/m*3 33 C 0 km/h
1284 30-06-2010 16:49:02 32.5 C 6.93 g/m*3 32.5 C 0 km/h
1285 30-06-2010 17:01:02 32.4 C 6.9 g/m*3 32.4 C 0 km/h
1286 30-06-2010 17:13:02 32.6 C 6.97 g/m*3 32.6 C 0 km/h
1287 30-06-2010 17:25:02 32.5 C 6.93 g/m*3 32.5 C 0 km/h
1288 30-06-2010 17:37:02 32 C 6.75 g/m*3 32 C 0 km/h
1289 30-06-2010 17:49:02 32.2 C 6.82 g/m*3 32.2 C 0 km/h
1290 30-06-2010 18:01:02 32.3 C 6.86 g/m*3 32.3 C 0 km/h
1291 30-06-2010 18:13:02 33.1 C 7.16 g/m*3 33.1 C 0 km/h
1292 30-06-2010 18:25:02 32.6 C 6.97 g/m*3 32.6 C 0 km/h
1293 30-06-2010 18:37:02 31.9 C 6.72 g/m*3 31.9 C 0 km/h
1294 30-06-2010 18:49:02 31.7 C 6.64 g/m*3 31.7 C 0 km/h
1295 30-06-2010 19:01:01 31.7 C 6.64 g/m*3 31.7 C 0 km/h
1296 30-06-2010 19:13:01 31.5 C 6.57 g/m*3 31.5 C 0 km/h
1297 30-06-2010 19:25:02 31.2 C 7.12 g/m*3 31.2 C 0 km/h
1298 30-06-2010 19:37:01 30.7 C 6.61 g/m*3 30.7 C 0 km/h
1299 30-06-2010 19:49:02 30.3 C 7.7 g/m*3 30.3 C 0 km/h
1300 30-06-2010 20:01:01 30.4 C 7.75 g/m*3 30.4 C 0 km/h
Sensor: Nr:Datum:Temp:Abs-Feuchte:Windchill:Wind:
Aussen-T/F 1301 30-06-2010 20:13:01 30.4 C 8.06 g/m*3 30.4 C 0 km/h
1302 30-06-2010 20:25:01 30.1 C 7.93 g/m*3 30.1 C 0 km/h
1303 30-06-2010 20:37:02 29.3 C 8.17 g/m*3 29.3 C 0 km/h
1304 30-06-2010 20:49:02 28.5 C 7.83 g/m*3 28.5 C 0 km/h
1305 30-06-2010 21:01:02 27.5 C 7.67 g/m*3 27.5 C 0 km/h
1306 30-06-2010 21:13:02 26.9 C 7.93 g/m*3 26.9 C 0 km/h
1307 30-06-2010 21:25:02 26.5 C 7.76 g/m*3 26.5 C 0 km/h
1308 30-06-2010 21:37:02 26 C 7.79 g/m*3 26 C 0 km/h
1309 30-06-2010 21:49:02 25.8 C 7.94 g/m*3 25.8 C 0 km/h
1310 30-06-2010 22:01:01 25.6 C 8.09 g/m*3 25.6 C 0 km/h
1311 30-06-2010 22:13:01 25.1 C 7.87 g/m*3 25.1 C 0 km/h
1312 30-06-2010 22:25:02 24.8 C 7.97 g/m*3 24.8 C 0 km/h
1313 30-06-2010 22:38:03 24.6 C 8.1 g/m*3 24.6 C 0 km/h
1314 30-06-2010 22:50:03 24.8 C 8.42 g/m*3 24.8 C 0 km/h
1315 30-06-2010 23:02:04 24.5 C 8.5 g/m*3 24.5 C 0 km/h
1316 30-06-2010 23:14:04 24 C 8.49 g/m*3 24 C 0 km/h
1317 30-06-2010 23:26:04 23.7 C 8.56 g/m*3 23.7 C 0 km/h
1318 30-06-2010 23:38:04 23.6 C 8.72 g/m*3 23.6 C 0 km/h
1319 30-06-2010 23:50:04 23.2 C 8.52 g/m*3 23.2 C 0 km/h
1320 01-07-2010 00:02:04 22.9 C 8.58 g/m*3 22.9 C 0 km/h
1321 01-07-2010 00:14:04 22.7 C 8.49 g/m*3 22.7 C 0 km/h
1322 01-07-2010 00:26:04 22.4 C 8.94 g/m*3 22.4 C 0 km/h
1323 01-07-2010 00:38:04 22.2 C 8.44 g/m*3 22.2 C 0 km/h
1324 01-07-2010 00:50:04 21.9 C 9.07 g/m*3 21.9 C 0 km/h
1325 01-07-2010 01:02:04 21.6 C 8.91 g/m*3 21.6 C 0 km/h
Sensor: Nr:Datum:Temp:Abs-Feuchte:Windchill:Wind:
Aussen-T/F 1326 01-07-2010 01:14:04 21.4 C 8.81 g/m*3 21.4 C 0 km/h
1327 01-07-2010 01:26:04 21.2 C 9.08 g/m*3 21.2 C 0 km/h
1328 01-07-2010 01:38:04 20.9 C 9.29 g/m*3 20.9 C 0 km/h
1329 01-07-2010 01:50:04 20.7 C 9.36 g/m*3 20.7 C 0 km/h
1330 01-07-2010 02:02:04 20.4 C 9.2 g/m*3 20.4 C 0 km/h
1331 01-07-2010 02:14:04 20.2 C 9.44 g/m*3 20.2 C 0 km/h
1332 01-07-2010 02:26:04 20.1 C 9.39 g/m*3 20.1 C 0 km/h
1333 01-07-2010 02:38:04 19.8 C 9.74 g/m*3 19.8 C 0 km/h
1334 01-07-2010 02:50:04 19.5 C 9.73 g/m*3 19.5 C 0 km/h
1335 01-07-2010 03:02:04 19.4 C 9.84 g/m*3 19.4 C 0 km/h
1336 01-07-2010 03:14:05 19.2 C 9.73 g/m*3 19.2 C 0 km/h
1337 01-07-2010 03:26:05 19 C 9.78 g/m*3 19 C 0 km/h
1338 01-07-2010 03:38:05 18.9 C 9.88 g/m*3 18.9 C 0 km/h
1339 01-07-2010 03:50:05 18.8 C 9.99 g/m*3 18.8 C 0 km/h
1340 01-07-2010 04:02:05 18.7 C 9.93 g/m*3 18.7 C 0 km/h
1341 01-07-2010 04:14:05 18.4 C 9.75 g/m*3 18.4 C 0 km/h
1342 01-07-2010 04:26:05 18.3 C 9.85 g/m*3 18.3 C 0 km/h
1343 01-07-2010 04:38:05 18.1 C 9.89 g/m*3 18.1 C 0 km/h
1344 01-07-2010 04:50:05 18 C 9.83 g/m*3 18 C 0 km/h
1345 01-07-2010 05:02:05 17.8 C 10.02 g/m*3 17.8 C 0 km/h
1346 01-07-2010 05:14:05 17.6 C 10.2 g/m*3 17.6 C 0 km/h
1347 01-07-2010 05:26:05 17.3 C 10.16 g/m*3 17.3 C 0 km/h
1348 01-07-2010 05:38:05 17.1 C 10.19 g/m*3 17.1 C 0 km/h
1349 01-07-2010 05:50:05 17 C 10.27 g/m*3 17 C 0 km/h
1350 01-07-2010 06:02:05 16.8 C 10.44 g/m*3 16.8 C 0 km/h
Sensor: Nr:Datum:Temp:Abs-Feuchte:Windchill:Wind:
Aussen-T/F 1351 01-07-2010 06:14:05 16.9 C 10.36 g/m*3 16.9 C 0 km/h
1352 01-07-2010 06:26:05 17.1 C 10.34 g/m*3 17.1 C 0 km/h
1353 01-07-2010 06:38:05 17.3 C 10.46 g/m*3 17.3 C 0 km/h
1354 01-07-2010 06:50:02 17.5 C 10.44 g/m*3 17.5 C 0 km/h
1355 01-07-2010 07:02:01 17.5 C 10.44 g/m*3 17.5 C 0 km/h
1356 01-07-2010 07:14:01 17.7 C 10.41 g/m*3 17.7 C 0 km/h
1357 01-07-2010 07:26:02 17.7 C 10.26 g/m*3 17.7 C 0 km/h
1358 01-07-2010 07:38:02 17.7 C 10.41 g/m*3 17.7 C 0 km/h
1359 01-07-2010 07:50:02 17.8 C 10.62 g/m*3 17.8 C 0 km/h
1360 01-07-2010 08:02:02 18.1 C 10.51 g/m*3 18.1 C 0 km/h
1361 01-07-2010 08:14:02 18.5 C 10.76 g/m*3 18.5 C 0 km/h
1362 01-07-2010 08:26:02 18.8 C 10.47 g/m*3 18.8 C 0 km/h
1363 01-07-2010 08:38:02 19.1 C 10.33 g/m*3 19.1 C 0 km/h
1364 01-07-2010 08:50:02 19.6 C 10.64 g/m*3 19.6 C 0 km/h
1365 01-07-2010 09:02:02 20.4 C 10.61 g/m*3 20.4 C 0 km/h
1366 01-07-2010 09:14:03 20.9 C 10.38 g/m*3 20.9 C 0 km/h
1367 01-07-2010 09:26:02 21.6 C 10.43 g/m*3 21.6 C 0 km/h
1368 01-07-2010 09:38:02 22.6 C 10.45 g/m*3 22.6 C 0 km/h
1369 01-07-2010 09:50:01 23.5 C 10.36 g/m*3 23.5 C 0 km/h
1370 01-07-2010 10:02:01 24.3 C 10.18 g/m*3 24.3 C 0 km/h
1371 01-07-2010 10:14:01 24.8 C 10.02 g/m*3 24.8 C 0 km/h
1372 01-07-2010 10:26:02 25.9 C 10.41 g/m*3 25.9 C 0 km/h
1373 01-07-2010 10:38:01 26.6 C 10.07 g/m*3 26.6 C 0 km/h
1374 01-07-2010 10:50:03 27.5 C 10.32 g/m*3 27.5 C 0 km/h
1375 01-07-2010 11:02:02 27.7 C 10.16 g/m*3 27.7 C 0 km/h
Sensor: Nr:Datum:Temp:Abs-Feuchte:Windchill:Wind:
Aussen-T/F 1376 01-07-2010 11:14:02 28.4 C 9.73 g/m*3 28.4 C 0 km/h
1377 01-07-2010 11:26:02 28.6 C 8.71 g/m*3 28.6 C 0 km/h
1378 01-07-2010 11:38:02 28.9 C 8.57 g/m*3 28.9 C 0 km/h
1379 01-07-2010 11:50:02 29.8 C 8.7 g/m*3 29.8 C 0 km/h
1380 01-07-2010 12:02:02 30.1 C 7.93 g/m*3 30.1 C 0 km/h
1381 01-07-2010 12:14:02 30.7 C 7.24 g/m*3 30.7 C 0 km/h
1382 01-07-2010 12:26:02 31.4 C 6.54 g/m*3 31.4 C 0 km/h
1383 01-07-2010 12:38:02 31.4 C 6.54 g/m*3 31.4 C 0 km/h
1384 01-07-2010 12:50:02 31.9 C 6.72 g/m*3 31.9 C 0 km/h
1385 01-07-2010 13:02:01 32.7 C 7.01 g/m*3 32.7 C 0 km/h
1386 01-07-2010 13:14:01 33 C 7.12 g/m*3 33 C 0 km/h
1387 01-07-2010 13:26:01 32.6 C 6.97 g/m*3 32.6 C 0 km/h
1388 01-07-2010 13:38:02 33 C 7.12 g/m*3 33 C 0 km/h
1389 01-07-2010 13:50:02 32.7 C 7.01 g/m*3 32.7 C 0 km/h
1390 01-07-2010 14:02:02 32.7 C 7.01 g/m*3 32.7 C 0 km/h
1391 01-07-2010 14:14:02 32.5 C 6.93 g/m*3 32.5 C 0 km/h
1392 01-07-2010 14:26:02 32.1 C 6.79 g/m*3 32.1 C 0 km/h
1393 01-07-2010 14:38:02 31.9 C 6.72 g/m*3 31.9 C 0 km/h
1394 01-07-2010 14:50:02 31.9 C 6.72 g/m*3 31.9 C 0 km/h
1395 01-07-2010 15:02:02 32.5 C 6.93 g/m*3 32.5 C 0 km/h
1396 01-07-2010 15:14:03 33.1 C 7.16 g/m*3 33.1 C 0 km/h
1397 01-07-2010 15:26:02 32.7 C 7.01 g/m*3 32.7 C 0 km/h
1398 01-07-2010 15:38:02 33 C 7.12 g/m*3 33 C 0 km/h
1399 01-07-2010 15:50:02 33.1 C 7.16 g/m*3 33.1 C 0 km/h
1400 01-07-2010 16:02:02 33.1 C 7.16 g/m*3 33.1 C 0 km/h
Sensor: Nr:Datum:Temp:Abs-Feuchte:Windchill:Wind:
Aussen-T/F 1401 01-07-2010 16:14:02 33 C 7.12 g/m*3 33 C 0 km/h
1402 01-07-2010 16:26:03 33.3 C 7.23 g/m*3 33.3 C 0 km/h
1403 01-07-2010 16:38:02 33.3 C 7.23 g/m*3 33.3 C 0 km/h
1404 01-07-2010 16:50:02 33.3 C 7.23 g/m*3 33.3 C 0 km/h
1405 01-07-2010 17:02:02 33.5 C 7.31 g/m*3 33.5 C 0 km/h
1406 01-07-2010 17:14:02 33.6 C 7.35 g/m*3 33.6 C 0 km/h
1407 01-07-2010 17:26:02 33.1 C 7.16 g/m*3 33.1 C 0 km/h
1408 01-07-2010 17:38:02 33 C 7.12 g/m*3 33 C 0 km/h
1409 01-07-2010 17:50:02 33.3 C 7.23 g/m*3 33.3 C 0 km/h
1410 01-07-2010 18:02:02 33.7 C 7.39 g/m*3 33.7 C 0 km/h
1411 01-07-2010 18:14:02 34.1 C 7.54 g/m*3 34.1 C 0 km/h
1412 01-07-2010 18:26:02 33.9 C 7.46 g/m*3 33.9 C 0 km/h
1413 01-07-2010 18:38:01 33.8 C 7.43 g/m*3 33.8 C 0 km/h
1414 01-07-2010 18:50:02 33.8 C 7.43 g/m*3 33.8 C 0 km/h
1415 01-07-2010 19:02:01 33.7 C 7.39 g/m*3 33.7 C 0 km/h
1416 01-07-2010 19:14:01 33.4 C 7.27 g/m*3 33.4 C 0 km/h
1417 01-07-2010 19:26:02 33.6 C 7.35 g/m*3 33.6 C 0 km/h
1418 01-07-2010 19:38:02 33.3 C 7.23 g/m*3 33.3 C 0 km/h
1419 01-07-2010 19:50:02 33.3 C 7.23 g/m*3 33.3 C 0 km/h
1420 01-07-2010 20:02:03 33.1 C 7.16 g/m*3 33.1 C 0 km/h
1421 01-07-2010 20:14:03 32.6 C 6.97 g/m*3 32.6 C 0 km/h
1422 01-07-2010 20:26:02 31.9 C 7.72 g/m*3 31.9 C 0 km/h
1423 01-07-2010 20:38:02 30.6 C 8.14 g/m*3 30.6 C 0 km/h
1424 01-07-2010 20:50:01 29.4 C 8.22 g/m*3 29.4 C 0 km/h
1425 01-07-2010 21:02:02 28.5 C 8.38 g/m*3 28.5 C 0 km/h
Sensor: Nr:Datum:Temp:Abs-Feuchte:Windchill:Wind:
Aussen-T/F 1426 01-07-2010 21:14:02 27.8 C 8.34 g/m*3 27.8 C 0 km/h
1427 01-07-2010 21:26:01 27.5 C 8.73 g/m*3 27.5 C 0 km/h
1428 01-07-2010 21:38:01 26.9 C 8.7 g/m*3 26.9 C 0 km/h
1429 01-07-2010 21:50:02 26.4 C 8.71 g/m*3 26.4 C 0 km/h
1430 01-07-2010 22:02:02 25.9 C 8.72 g/m*3 25.9 C 0 km/h
1431 01-07-2010 22:14:02 25.6 C 8.57 g/m*3 25.6 C 0 km/h
1432 01-07-2010 22:26:02 25.5 C 8.52 g/m*3 25.5 C 0 km/h
1433 01-07-2010 22:38:02 25.3 C 8.43 g/m*3 25.3 C 0 km/h
1434 01-07-2010 22:50:02 25.2 C 8.38 g/m*3 25.2 C 0 km/h
1435 01-07-2010 23:02:02 25.1 C 8.33 g/m*3 25.1 C 0 km/h
1436 01-07-2010 23:14:02 24.9 C 8.24 g/m*3 24.9 C 0 km/h
1437 01-07-2010 23:27:18 24.7 C 8.37 g/m*3 24.7 C 0 km/h
1438 01-07-2010 23:39:18 24.6 C 8.55 g/m*3 24.6 C 0 km/h
1439 01-07-2010 23:51:18 24.4 C 8.68 g/m*3 24.4 C 0 km/h
1440 02-07-2010 00:03:18 24.1 C 8.53 g/m*3 24.1 C 0 km/h
1441 02-07-2010 00:15:18 23.7 C 8.98 g/m*3 23.7 C 0 km/h
1442 02-07-2010 00:27:19 23.6 C 9.15 g/m*3 23.6 C 0 km/h
1443 02-07-2010 00:39:19 23.1 C 8.68 g/m*3 23.1 C 0 km/h
1444 02-07-2010 00:51:19 22.9 C 8.79 g/m*3 22.9 C 0 km/h
1445 02-07-2010 01:03:19 22.8 C 8.94 g/m*3 22.8 C 0 km/h
1446 02-07-2010 01:15:19 22.6 C 9.04 g/m*3 22.6 C 0 km/h
1447 02-07-2010 01:27:19 22.4 C 9.14 g/m*3 22.4 C 0 km/h
1448 02-07-2010 01:39:19 22.4 C 9.14 g/m*3 22.4 C 0 km/h
1449 02-07-2010 01:51:19 22.1 C 8.98 g/m*3 22.1 C 0 km/h
1450 02-07-2010 02:03:19 21.7 C 8.97 g/m*3 21.7 C 0 km/h
Sensor: Nr:Datum:Temp:Abs-Feuchte:Windchill:Wind:
Aussen-T/F 1451 02-07-2010 02:15:19 21.6 C 9.29 g/m*3 21.6 C 0 km/h
1452 02-07-2010 02:27:19 21.3 C 8.76 g/m*3 21.3 C 0 km/h
1453 02-07-2010 02:39:19 21.1 C 8.84 g/m*3 21.1 C 0 km/h
1454 02-07-2010 02:51:19 20.9 C 8.92 g/m*3 20.9 C 0 km/h
1455 02-07-2010 03:03:19 20.9 C 8.92 g/m*3 20.9 C 0 km/h
1456 02-07-2010 03:15:19 20.7 C 9.18 g/m*3 20.7 C 0 km/h
1457 02-07-2010 03:27:19 20.6 C 9.13 g/m*3 20.6 C 0 km/h
1458 02-07-2010 03:39:19 20.4 C 9.2 g/m*3 20.4 C 0 km/h
1459 02-07-2010 03:51:19 20.4 C 9.38 g/m*3 20.4 C 0 km/h
1460 02-07-2010 04:03:19 20.1 C 9.39 g/m*3 20.1 C 0 km/h
1461 02-07-2010 04:15:19 19.9 C 9.62 g/m*3 19.9 C 0 km/h
1462 02-07-2010 04:27:19 19.6 C 9.79 g/m*3 19.6 C 0 km/h
1463 02-07-2010 04:39:19 19.5 C 9.73 g/m*3 19.5 C 0 km/h
1464 02-07-2010 04:51:19 19.3 C 9.79 g/m*3 19.3 C 0 km/h
1465 02-07-2010 05:03:20 19.2 C 9.73 g/m*3 19.2 C 0 km/h
1466 02-07-2010 05:15:20 19 C 9.61 g/m*3 19 C 0 km/h
1467 02-07-2010 05:27:20 18.8 C 9.99 g/m*3 18.8 C 0 km/h
1468 02-07-2010 05:39:20 18.7 C 9.77 g/m*3 18.7 C 0 km/h
1469 02-07-2010 05:51:20 18.6 C 9.87 g/m*3 18.6 C 0 km/h
1470 02-07-2010 06:03:20 18.6 C 10.03 g/m*3 18.6 C 0 km/h
1471 02-07-2010 06:15:20 18.6 C 10.19 g/m*3 18.6 C 0 km/h
1472 02-07-2010 06:27:20 18.6 C 10.19 g/m*3 18.6 C 0 km/h
1473 02-07-2010 06:39:20 18.7 C 10.41 g/m*3 18.7 C 0 km/h
1474 02-07-2010 06:51:04 18.9 C 10.53 g/m*3 18.9 C 0 km/h
1475 02-07-2010 07:03:02 19.1 C 10.33 g/m*3 19.1 C 0 km/h
Sensor: Nr:Datum:Temp:Abs-Feuchte:Windchill:Wind:
Aussen-T/F 1476 02-07-2010 07:15:02 19.4 C 10.51 g/m*3 19.4 C 0 km/h
1477 02-07-2010 07:27:02 19.5 C 10.41 g/m*3 19.5 C 0 km/h
1478 02-07-2010 07:39:02 19.7 C 10.7 g/m*3 19.7 C 0 km/h
1479 02-07-2010 07:51:02 19.9 C 10.65 g/m*3 19.9 C 0 km/h
1480 02-07-2010 08:03:02 20.1 C 10.43 g/m*3 20.1 C 0 km/h
1481 02-07-2010 08:15:02 20.4 C 10.44 g/m*3 20.4 C 0 km/h
1482 02-07-2010 08:27:02 20.8 C 10.5 g/m*3 20.8 C 0 km/h
1483 02-07-2010 08:39:02 21.2 C 10.56 g/m*3 21.2 C 0 km/h
1484 02-07-2010 08:51:02 21.8 C 10.74 g/m*3 21.8 C 0 km/h
1485 02-07-2010 09:03:02 22.6 C 10.65 g/m*3 22.6 C 0 km/h
1486 02-07-2010 09:15:02 23.2 C 10.6 g/m*3 23.2 C 0 km/h
1487 02-07-2010 09:27:02 24.1 C 10.72 g/m*3 24.1 C 0 km/h
1488 02-07-2010 09:39:02 24.9 C 10.76 g/m*3 24.9 C 0 km/h
1489 02-07-2010 09:51:03 25.9 C 10.65 g/m*3 25.9 C 0 km/h
1490 02-07-2010 10:03:02 26.2 C 10.09 g/m*3 26.2 C 0 km/h
1491 02-07-2010 10:15:03 26.9 C 10.49 g/m*3 26.9 C 0 km/h
1492 02-07-2010 10:27:03 27.7 C 10.43 g/m*3 27.7 C 0 km/h
1493 02-07-2010 10:39:02 28.9 C 10.57 g/m*3 28.9 C 0 km/h
1494 02-07-2010 10:51:02 29.6 C 10.39 g/m*3 29.6 C 0 km/h
1495 02-07-2010 11:03:01 30.1 C 10.37 g/m*3 30.1 C 0 km/h
1496 02-07-2010 11:15:02 29.8 C 9.9 g/m*3 29.8 C 0 km/h
1497 02-07-2010 11:27:02 30.1 C 10.06 g/m*3 30.1 C 0 km/h
1498 02-07-2010 11:39:02 30.3 C 9.55 g/m*3 30.3 C 0 km/h
1499 02-07-2010 11:51:02 30.6 C 9.71 g/m*3 30.6 C 0 km/h
1500 02-07-2010 12:03:03 31.2 C 10.03 g/m*3 31.2 C 0 km/h
Sensor: Nr:Datum:Temp:Abs-Feuchte:Windchill:Wind:
Aussen-T/F 1501 02-07-2010 12:15:02 31.5 C 8.55 g/m*3 31.5 C 0 km/h
1502 02-07-2010 12:27:02 32 C 7.09 g/m*3 32 C 0 km/h
1503 02-07-2010 12:39:03 32.9 C 7.08 g/m*3 32.9 C 0 km/h
1504 02-07-2010 12:51:02 33 C 7.12 g/m*3 33 C 0 km/h
1505 02-07-2010 13:03:02 32.7 C 7.01 g/m*3 32.7 C 0 km/h
1506 02-07-2010 13:15:02 33.3 C 7.23 g/m*3 33.3 C 0 km/h
1507 02-07-2010 13:27:02 33.7 C 7.39 g/m*3 33.7 C 0 km/h
1508 02-07-2010 13:39:02 33.9 C 7.46 g/m*3 33.9 C 0 km/h
1509 02-07-2010 13:51:02 33.2 C 7.2 g/m*3 33.2 C 0 km/h
1510 02-07-2010 14:03:02 32.4 C 7.59 g/m*3 32.4 C 0 km/h
1511 02-07-2010 14:15:03 32.9 C 7.79 g/m*3 32.9 C 0 km/h
1512 02-07-2010 14:27:03 32.9 C 7.08 g/m*3 32.9 C 0 km/h
1513 02-07-2010 14:39:02 32.8 C 7.04 g/m*3 32.8 C 0 km/h
1514 02-07-2010 14:51:01 32.9 C 7.44 g/m*3 32.9 C 0 km/h
1515 02-07-2010 15:03:01 32.4 C 6.9 g/m*3 32.4 C 0 km/h
1516 02-07-2010 15:15:02 32.4 C 8.62 g/m*3 32.4 C 0 km/h
1517 02-07-2010 15:27:02 31.9 C 8.73 g/m*3 31.9 C 0 km/h
1518 02-07-2010 15:39:01 32 C 9.11 g/m*3 32 C 0 km/h
1519 02-07-2010 15:51:03 32.3 C 9.26 g/m*3 32.3 C 0 km/h
1520 02-07-2010 16:03:02 32.1 C 9.5 g/m*3 32.1 C 0 km/h
1521 02-07-2010 16:15:03 31.9 C 9.74 g/m*3 31.9 C 0 km/h
1522 02-07-2010 16:27:03 32.3 C 8.92 g/m*3 32.3 C 0 km/h
1523 02-07-2010 16:39:02 32.9 C 8.14 g/m*3 32.9 C 0 km/h
1524 02-07-2010 16:51:02 33.1 C 7.52 g/m*3 33.1 C 0 km/h
1525 02-07-2010 17:03:02 33.7 C 7.39 g/m*3 33.7 C 0 km/h
Sensor: Nr:Datum:Temp:Abs-Feuchte:Windchill:Wind:
Aussen-T/F 1526 02-07-2010 17:15:02 34.2 C 7.58 g/m*3 34.2 C 0 km/h
1527 02-07-2010 17:27:02 34.6 C 7.74 g/m*3 34.6 C 0 km/h
1528 02-07-2010 17:39:02 34.4 C 7.66 g/m*3 34.4 C 0 km/h
1529 02-07-2010 17:51:02 34.2 C 7.58 g/m*3 34.2 C 0 km/h
1530 02-07-2010 18:03:01 34.1 C 7.54 g/m*3 34.1 C 0 km/h
1531 02-07-2010 18:15:02 34 C 7.5 g/m*3 34 C 0 km/h
1532 02-07-2010 18:27:02 33.5 C 7.31 g/m*3 33.5 C 0 km/h
1533 02-07-2010 18:39:02 33.3 C 7.23 g/m*3 33.3 C 0 km/h
1534 02-07-2010 18:51:01 33.6 C 7.35 g/m*3 33.6 C 0 km/h
1535 02-07-2010 19:03:02 33.4 C 7.27 g/m*3 33.4 C 0 km/h
1536 02-07-2010 19:15:01 33.5 C 7.31 g/m*3 33.5 C 0 km/h
1537 02-07-2010 19:27:01 34 C 7.5 g/m*3 34 C 0 km/h
1538 02-07-2010 19:39:02 34.1 C 7.54 g/m*3 34.1 C 0 km/h
1539 02-07-2010 19:51:02 33.8 C 7.43 g/m*3 33.8 C 0 km/h
1540 02-07-2010 20:03:02 33.5 C 7.31 g/m*3 33.5 C 0 km/h
1541 02-07-2010 20:15:01 33 C 7.48 g/m*3 33 C 0 km/h
1542 02-07-2010 20:27:01 32.7 C 7.71 g/m*3 32.7 C 0 km/h
1543 02-07-2010 20:39:02 32 C 8.78 g/m*3 32 C 0 km/h
1544 02-07-2010 20:51:02 31.6 C 8.92 g/m*3 31.6 C 0 km/h
1545 02-07-2010 21:03:02 31 C 8.64 g/m*3 31 C 0 km/h
1546 02-07-2010 21:15:03 30.3 C 8.32 g/m*3 30.3 C 0 km/h
1547 02-07-2010 21:27:03 29.4 C 8.51 g/m*3 29.4 C 0 km/h
1548 02-07-2010 21:39:02 29.1 C 8.38 g/m*3 29.1 C 0 km/h
1549 02-07-2010 21:51:03 28.6 C 7.87 g/m*3 28.6 C 0 km/h
1550 02-07-2010 22:03:02 27.8 C 8.34 g/m*3 27.8 C 0 km/h
Sensor: Nr:Datum:Temp:Abs-Feuchte:Windchill:Wind:
Aussen-T/F 1551 02-07-2010 22:15:03 27.4 C 7.89 g/m*3 27.4 C 0 km/h
1552 02-07-2010 22:27:03 27.2 C 7.81 g/m*3 27.2 C 0 km/h
1553 02-07-2010 22:39:02 26.8 C 7.89 g/m*3 26.8 C 0 km/h
1554 02-07-2010 22:52:03 26.3 C 7.67 g/m*3 26.3 C 0 km/h
1555 02-07-2010 23:04:03 26 C 7.79 g/m*3 26 C 0 km/h
1556 02-07-2010 23:16:03 25.8 C 8.19 g/m*3 25.8 C 0 km/h
1557 02-07-2010 23:28:03 25.6 C 8.33 g/m*3 25.6 C 0 km/h
1558 02-07-2010 23:40:03 25.5 C 8.29 g/m*3 25.5 C 0 km/h
1559 02-07-2010 23:52:03 25.2 C 8.38 g/m*3 25.2 C 0 km/h
1560 03-07-2010 00:04:03 25 C 8.52 g/m*3 25 C 0 km/h
1561 03-07-2010 00:16:03 24.7 C 8.83 g/m*3 24.7 C 0 km/h
1562 03-07-2010 00:28:03 24.4 C 9.12 g/m*3 24.4 C 0 km/h
1563 03-07-2010 00:40:03 24.2 C 9.24 g/m*3 24.2 C 0 km/h
1564 03-07-2010 00:52:03 24 C 9.14 g/m*3 24 C 0 km/h
1565 03-07-2010 01:04:03 23.8 C 9.68 g/m*3 23.8 C 0 km/h
1566 03-07-2010 01:16:03 23.6 C 9.78 g/m*3 23.6 C 0 km/h
1567 03-07-2010 01:28:03 23.4 C 9.67 g/m*3 23.4 C 0 km/h
1568 03-07-2010 01:40:03 23.1 C 9.92 g/m*3 23.1 C 0 km/h
1569 03-07-2010 01:52:03 23 C 10.07 g/m*3 23 C 0 km/h
1570 03-07-2010 02:04:04 22.8 C 10.36 g/m*3 22.8 C 0 km/h
1571 03-07-2010 02:16:04 22.6 C 10.45 g/m*3 22.6 C 0 km/h
1572 03-07-2010 02:28:04 22.5 C 10.39 g/m*3 22.5 C 0 km/h
1573 03-07-2010 02:40:04 22.5 C 10.39 g/m*3 22.5 C 0 km/h
1574 03-07-2010 02:52:04 22.2 C 10.6 g/m*3 22.2 C 0 km/h
1575 03-07-2010 03:04:04 22 C 10.48 g/m*3 22 C 0 km/h
Sensor: Nr:Datum:Temp:Abs-Feuchte:Windchill:Wind:
Aussen-T/F 1576 03-07-2010 03:16:04 21.7 C 10.68 g/m*3 21.7 C 0 km/h
1577 03-07-2010 03:28:04 21.6 C 10.81 g/m*3 21.6 C 0 km/h
1578 03-07-2010 03:40:04 21.4 C 10.87 g/m*3 21.4 C 0 km/h
1579 03-07-2010 03:52:04 21.2 C 10.93 g/m*3 21.2 C 0 km/h
1580 03-07-2010 04:04:04 21 C 10.81 g/m*3 21 C 0 km/h
1581 03-07-2010 04:16:04 20.8 C 11.05 g/m*3 20.8 C 0 km/h
1582 03-07-2010 04:28:04 20.8 C 11.23 g/m*3 20.8 C 0 km/h
1583 03-07-2010 04:40:04 20.5 C 11.03 g/m*3 20.5 C 0 km/h
1584 03-07-2010 04:52:04 20.3 C 11.08 g/m*3 20.3 C 0 km/h
1585 03-07-2010 05:04:04 20.3 C 11.08 g/m*3 20.3 C 0 km/h
1586 03-07-2010 05:16:04 20.1 C 11.13 g/m*3 20.1 C 0 km/h
1587 03-07-2010 05:28:04 19.9 C 11.34 g/m*3 19.9 C 0 km/h
1588 03-07-2010 05:40:04 19.9 C 11.51 g/m*3 19.9 C 0 km/h
1589 03-07-2010 05:52:04 19.9 C 11.51 g/m*3 19.9 C 0 km/h
1590 03-07-2010 06:04:05 20 C 11.23 g/m*3 20 C 0 km/h
1591 03-07-2010 06:16:05 20 C 11.41 g/m*3 20 C 0 km/h
1592 03-07-2010 06:28:05 20.2 C 11.54 g/m*3 20.2 C 0 km/h
1593 03-07-2010 06:40:05 20.2 C 11.54 g/m*3 20.2 C 0 km/h
1594 03-07-2010 06:52:02 20.5 C 11.74 g/m*3 20.5 C 0 km/h
1595 03-07-2010 07:04:01 20.9 C 11.84 g/m*3 20.9 C 0 km/h
1596 03-07-2010 07:16:02 21.1 C 11.61 g/m*3 21.1 C 0 km/h
1597 03-07-2010 07:28:02 21.2 C 11.68 g/m*3 21.2 C 0 km/h
1598 03-07-2010 07:40:02 21.6 C 11.76 g/m*3 21.6 C 0 km/h
1599 03-07-2010 07:52:02 21.8 C 11.9 g/m*3 21.8 C 0 km/h
1600 03-07-2010 08:04:02 22.1 C 11.71 g/m*3 22.1 C 0 km/h
Sensor: Nr:Datum:Temp:Abs-Feuchte:Windchill:Wind:
Aussen-T/F 1601 03-07-2010 08:16:02 22.3 C 11.65 g/m*3 22.3 C 0 km/h
1602 03-07-2010 08:28:02 22.5 C 11.78 g/m*3 22.5 C 0 km/h
1603 03-07-2010 08:40:02 22.8 C 11.99 g/m*3 22.8 C 0 km/h
1604 03-07-2010 08:52:02 23.2 C 11.85 g/m*3 23.2 C 0 km/h
1605 03-07-2010 09:04:02 23.9 C 12.11 g/m*3 23.9 C 0 km/h
1606 03-07-2010 09:16:01 24.5 C 11.86 g/m*3 24.5 C 0 km/h
1607 03-07-2010 09:28:01 25.1 C 12.04 g/m*3 25.1 C 0 km/h
1608 03-07-2010 09:40:02 25.8 C 12.28 g/m*3 25.8 C 0 km/h
1609 03-07-2010 09:52:02 26.5 C 12.27 g/m*3 26.5 C 0 km/h
1610 03-07-2010 10:04:02 27.3 C 12.56 g/m*3 27.3 C 0 km/h
1611 03-07-2010 10:16:02 28.1 C 12.03 g/m*3 28.1 C 0 km/h
1612 03-07-2010 10:28:02 29 C 12.06 g/m*3 29 C 0 km/h
1613 03-07-2010 10:40:02 29.5 C 11.81 g/m*3 29.5 C 0 km/h
1614 03-07-2010 10:52:02 30.3 C 12.02 g/m*3 30.3 C 0 km/h
1615 03-07-2010 11:04:03 30.7 C 11.97 g/m*3 30.7 C 0 km/h
1616 03-07-2010 11:16:03 30.9 C 11.78 g/m*3 30.9 C 0 km/h
1617 03-07-2010 11:28:03 31.1 C 10.62 g/m*3 31.1 C 0 km/h
1618 03-07-2010 11:40:02 31.6 C 10.24 g/m*3 31.6 C 0 km/h
1619 03-07-2010 11:52:01 32.2 C 9.55 g/m*3 32.2 C 0 km/h
1620 03-07-2010 12:04:02 32.7 C 8.76 g/m*3 32.7 C 0 km/h
1621 03-07-2010 12:16:01 33.3 C 7.23 g/m*3 33.3 C 0 km/h
1622 03-07-2010 12:28:01 33.1 C 7.16 g/m*3 33.1 C 0 km/h
1623 03-07-2010 12:40:02 33.4 C 7.27 g/m*3 33.4 C 0 km/h
1624 03-07-2010 12:52:02 34 C 7.5 g/m*3 34 C 0 km/h
1625 03-07-2010 13:04:02 34 C 7.5 g/m*3 34 C 0 km/h
Sensor: Nr:Datum:Temp:Abs-Feuchte:Windchill:Wind:
Aussen-T/F 1626 03-07-2010 13:16:01 34.3 C 7.62 g/m*3 34.3 C 0 km/h
1627 03-07-2010 13:28:01 33.9 C 7.46 g/m*3 33.9 C 0 km/h
1628 03-07-2010 13:40:02 32.6 C 8.36 g/m*3 32.6 C 0 km/h
1629 03-07-2010 13:52:02 34.1 C 7.54 g/m*3 34.1 C 0 km/h
1630 03-07-2010 14:04:02 34.2 C 7.58 g/m*3 34.2 C 0 km/h
1631 03-07-2010 14:16:01 33.7 C 7.39 g/m*3 33.7 C 0 km/h
1632 03-07-2010 14:28:01 33.5 C 7.31 g/m*3 33.5 C 0 km/h
1633 03-07-2010 14:40:02 33.8 C 7.43 g/m*3 33.8 C 0 km/h
1634 03-07-2010 14:52:02 33.4 C 7.27 g/m*3 33.4 C 0 km/h
1635 03-07-2010 15:04:01 32.8 C 7.4 g/m*3 32.8 C 0 km/h
1636 03-07-2010 15:16:02 32.3 C 8.58 g/m*3 32.3 C 0 km/h
1637 03-07-2010 15:28:02 31.7 C 7.64 g/m*3 31.7 C 0 km/h
1638 03-07-2010 15:40:02 31.5 C 7.56 g/m*3 31.5 C 0 km/h
1639 03-07-2010 15:52:02 31.4 C 7.85 g/m*3 31.4 C 0 km/h
1640 03-07-2010 16:04:03 31.2 C 8.09 g/m*3 31.2 C 0 km/h
1641 03-07-2010 16:16:02 31.5 C 8.22 g/m*3 31.5 C 0 km/h
1642 03-07-2010 16:28:02 31 C 8.32 g/m*3 31 C 0 km/h
1643 03-07-2010 16:40:03 30.2 C 9.2 g/m*3 30.2 C 0 km/h
1644 03-07-2010 16:52:02 30.1 C 9.76 g/m*3 30.1 C 0 km/h
1645 03-07-2010 17:04:02 30.2 C 10.42 g/m*3 30.2 C 0 km/h
1646 03-07-2010 17:16:02 29.7 C 10.14 g/m*3 29.7 C 0 km/h
1647 03-07-2010 17:28:02 29.5 C 9.44 g/m*3 29.5 C 0 km/h
1648 03-07-2010 17:40:02 29.5 C 9.74 g/m*3 29.5 C 0 km/h
1649 03-07-2010 17:52:01 28.1 C 9.57 g/m*3 28.1 C 0 km/h
1650 03-07-2010 18:04:01 27.3 C 9.94 g/m*3 27.3 C 0 km/h
Sensor: Nr:Datum:Temp:Abs-Feuchte:Windchill:Wind:
Aussen-T/F 1651 03-07-2010 18:16:02 26.3 C 10.64 g/m*3 26.3 C 0 km/h
1652 03-07-2010 18:28:02 26.2 C 11.08 g/m*3 26.2 C 0 km/h
1653 03-07-2010 18:40:01 26.1 C 11.02 g/m*3 26.1 C 0 km/h
1654 03-07-2010 18:52:01 26.5 C 10.76 g/m*3 26.5 C 0 km/h
1655 03-07-2010 19:04:02 26.6 C 11.08 g/m*3 26.6 C 0 km/h
1656 03-07-2010 19:16:02 27.1 C 11.13 g/m*3 27.1 C 0 km/h
1657 03-07-2010 19:28:02 26.8 C 11.71 g/m*3 26.8 C 0 km/h
1658 03-07-2010 19:40:02 27.5 C 11.64 g/m*3 27.5 C 0 km/h
1659 03-07-2010 19:52:02 27.5 C 11.64 g/m*3 27.5 C 0 km/h
1660 03-07-2010 20:04:02 27.8 C 12.1 g/m*3 27.8 C 0 km/h
1661 03-07-2010 20:16:02 28.3 C 11.89 g/m*3 28.3 C 0 km/h
1662 03-07-2010 20:28:02 28.2 C 12.1 g/m*3 28.2 C 0 km/h
1663 03-07-2010 20:40:01 28.4 C 11.95 g/m*3 28.4 C 0 km/h
1664 03-07-2010 20:52:02 27.7 C 12.3 g/m*3 27.7 C 0 km/h
1665 03-07-2010 21:04:01 27.3 C 12.82 g/m*3 27.3 C 0 km/h
1666 03-07-2010 21:16:02 26.6 C 13.09 g/m*3 26.6 C 0 km/h
1667 03-07-2010 21:28:02 26.1 C 13.46 g/m*3 26.1 C 0 km/h
1668 03-07-2010 21:40:02 25.8 C 13.72 g/m*3 25.8 C 0 km/h
1669 03-07-2010 21:52:02 25.4 C 13.89 g/m*3 25.4 C 0 km/h
1670 03-07-2010 22:04:03 25.6 C 14.05 g/m*3 25.6 C 0 km/h
1671 03-07-2010 22:16:02 25.4 C 14.36 g/m*3 25.4 C 0 km/h
1672 03-07-2010 22:28:02 25 C 14.04 g/m*3 25 C 0 km/h
1673 03-07-2010 22:40:02 24.6 C 13.95 g/m*3 24.6 C 0 km/h
1674 03-07-2010 22:52:01 24.5 C 13.88 g/m*3 24.5 C 0 km/h
1675 03-07-2010 23:04:02 24.2 C 13.64 g/m*3 24.2 C 0 km/h
Sensor: Nr:Datum:Temp:Abs-Feuchte:Windchill:Wind:
Aussen-T/F 1676 03-07-2010 23:16:01 24.1 C 14 g/m*3 24.1 C 0 km/h
1677 03-07-2010 23:28:01 24.1 C 13.78 g/m*3 24.1 C 0 km/h
1678 03-07-2010 23:40:02 24 C 13.71 g/m*3 24 C 0 km/h
1679 03-07-2010 23:52:01 23.8 C 13.77 g/m*3 23.8 C 0 km/h

Legende:
   Min
   Max


Maximal/Minimal-Werte vom 20.06.2010 - 03.07.2010

Sensor Min Max Avg
Temp
(Aussen-T/F)
8.5 °C
21-06-2010  06:05:04
34.6 °C
02-07-2010  17:27:02
22.31 °C
Abs-Feuchte
(Aussen-T/F)
4.03 g/m*3
21-06-2010  17:05:02
14.36 g/m*3
03-07-2010  22:16:02
7.97 g/m*3
Windchill
(Aussen-T/F)
8.5 C
21-06-2010  06:05:04
34.6 C
02-07-2010  17:27:02
22.3 C

Die Daten stammen von einer Davis Vantage Pro 2 Wetter-Station und werden unter Linux mit der Software wview2wettercgi und aufbereitet. Alle Angaben erfolgen ohne Gewähr für ihre Vollständigkeit oder Richtigkeit.
Kontakt: Rainer Krienke krienke@uni-koblenz.de . Meine Webseiten an der Uni Koblenz oder privat.
Version: $Revision: 0.78 $